Data Archive--May, 2004

Date Time Heat Index Current Temp Wind Chill High Temp Low Temp Humidity Dew Point Wind Speed Gust Wind Direction Rain Barometer
05/14/2004 4:30 p 70.0 69.8 69.8 70.0 69.5 70 59.6 0.0 1.0 NE 0.00 30.034
05/14/2004 5:00 p 69.6 68.5 68.5 69.6 67.5 73 59.5 0.0 3.0 NE 0.00 30.029
05/14/2004 5:30 p 66.7 66.7 66.7 67.5 66.2 76 58.9 0.0 3.0 NE 0.00 30.023
05/14/2004 6:00 p 65.7 65.7 65.7 66.2 64.7 78 58.7 0.0 2.0 NE 0.00 30.027
05/14/2004 6:30 p 63.7 63.7 63.7 64.7 62.9 82 58.1 0.0 2.0 NE 0.00 30.021
05/14/2004 7:00 p 62.9 62.9 62.9 63.1 62.4 83 57.7 0.0 1.0 NE 0.00 30.014
05/14/2004 7:30 p 61.5 61.5 61.5 62.4 61.0 87 57.6 0.0 2.0 NE 0.00 30.012
05/14/2004 8:00 p 60.4 60.4 60.4 61.0 60.0 89 57.1 0.0 0.0 --- 0.00 30.013
05/14/2004 8:30 p 59.7 59.7 59.7 60.0 59.5 90 56.8 0.0 0.0 --- 0.00 30.015
05/14/2004 9:00 p 59.2 59.2 59.2 59.5 59.0 91 56.6 0.0 2.0 NE 0.00 30.018
05/14/2004 9:30 p 58.9 58.9 58.9 59.0 58.8 92 56.6 0.0 0.0 --- 0.00 30.022
05/14/2004 10:00 p 58.7 58.7 58.7 58.9 58.6 93 56.7 0.0 0.0 --- 0.00 30.021
05/14/2004 10:30 p 58.5 58.5 58.5 58.6 58.4 93 56.5 0.0 0.0 --- 0.00 30.006
05/14/2004 11:00 p 58.3 58.3 58.3 58.5 58.2 94 56.6 0.0 0.0 --- 0.00 29.997
05/14/2004 11:30 p 58.2 58.2 58.2 58.3 58.2 94 56.5 0.0 0.0 --- 0.00 29.995
05/15/2004 12:00 a 58.4 58.4 58.4 58.5 58.3 94 56.7 0.0 0.0 --- 0.00 29.997
05/15/2004 12:30 a 58.5 58.5 58.5 58.6 58.5 94 56.8 0.0 0.0 --- 0.00 29.993
05/15/2004 1:00 a 58.6 58.6 58.6 58.6 58.5 95 57.2 0.0 0.0 --- 0.00 29.984
05/15/2004 1:30 a 58.5 58.5 58.5 58.6 58.5 96 57.4 0.0 0.0 --- 0.00 29.985
05/15/2004 2:00 a 58.6 58.6 58.6 58.7 58.6 96 57.5 0.0 0.0 --- 0.00 29.981
05/15/2004 2:30 a 58.7 58.7 58.7 58.8 58.6 97 57.9 0.0 0.0 --- 0.00 29.980
05/15/2004 3:00 a 58.7 58.7 58.7 58.8 58.7 96 57.6 0.0 0.0 --- 0.00 29.973
05/15/2004 3:30 a 58.7 58.7 58.7 58.8 58.6 97 57.9 0.0 0.0 --- 0.00 29.979
05/15/2004 4:00 a 58.6 58.6 58.6 58.7 58.6 97 57.8 0.0 0.0 --- 0.00 29.974
05/15/2004 4:30 a 58.6 58.6 58.6 58.6 58.6 97 57.8 0.0 0.0 --- 0.00 29.969
05/15/2004 5:00 a 58.6 58.6 58.6 58.6 58.5 97 57.8 0.0 0.0 --- 0.00 29.965
05/15/2004 5:30 a 58.6 58.6 58.6 58.7 58.5 97 57.8 0.0 0.0 --- 0.00 29.966
05/15/2004 6:00 a 58.7 58.7 58.7 58.8 58.7 97 57.9 0.0 0.0 --- 0.00 29.974
05/15/2004 6:30 a 58.8 58.8 58.8 59.0 58.7 98 58.2 0.0 0.0 --- 0.00 29.981
05/15/2004 7:00 a 59.2 59.2 59.2 59.6 59.0 97 58.4 0.0 0.0 --- 0.00 29.981
05/15/2004 7:30 a 60.2 60.2 60.2 60.7 59.6 96 59.1 0.0 0.0 --- 0.00 29.988
05/15/2004 8:00 a 61.4 61.4 61.4 62.2 60.7 94 59.7 0.0 0.0 --- 0.00 29.987
05/15/2004 8:30 a 63.6 63.6 63.6 65.3 62.2 91 60.9 0.0 0.0 --- 0.00 29.986
05/15/2004 9:00 a 67.4 67.4 67.4 70.3 65.3 84 62.4 0.0 1.0 --- 0.00 29.991
05/15/2004 9:30 a 73.6 72.3 72.3 73.8 70.3 78 65.1 0.0 0.0 --- 0.00 29.978
05/15/2004 10:00 a 77.0 74.6 74.6 75.3 73.8 76 66.5 0.0 1.0 --- 0.00 29.977
05/15/2004 10:30 a 77.8 76.4 76.4 77.7 75.3 69 65.5 0.0 0.0 --- 0.00 29.969
05/15/2004 11:00 a 81.0 78.8 78.8 80.0 77.5 68 67.4 0.0 0.0 --- 0.00 29.963
05/15/2004 11:30 a 82.6 79.7 79.7 80.7 79.3 66 67.3 0.0 0.0 --- 0.00 29.957
05/15/2004 12:00 p 84.6 81.6 81.6 82.5 80.7 62 67.3 0.0 1.0 E 0.00 29.944
05/15/2004 12:30 p 86.4 84.7 84.7 89.2 82.5 47 62.3 0.0 3.0 ESE 0.00 29.941
05/15/2004 1:00 p 94.0 91.8 91.8 93.2 89.3 40 64.1 0.0 2.0 SW 0.00 29.933
05/15/2004 1:30 p 96.2 94.6 94.6 98.0 91.8 33 61.1 0.0 3.0 SSW 0.00 29.922
05/15/2004 2:00 p 99.4 96.0 96.0 98.1 92.4 36 64.8 0.0 4.0 SSW 0.00 29.910
05/15/2004 2:30 p 100.2 96.5 96.5 98.2 93.9 33 62.7 0.0 2.0 N 0.00 29.907
05/15/2004 3:00 p 98.2 96.2 96.2 97.2 95.3 33 62.5 0.0 2.0 NE 0.00 29.897
05/15/2004 5:30 p 88.8 86.8 86.8 88.1 85.0 46 63.6 0.0 2.0 ENE 0.00 29.867
05/15/2004 6:00 p 86.0 84.6 84.6 85.0 84.1 45 60.9 0.0 4.0 N 0.00 29.868
05/15/2004 6:30 p 85.0 83.2 83.2 84.1 82.2 50 62.6 0.0 3.0 SSE 0.00 29.877
05/15/2004 7:00 p 83.3 81.5 81.5 82.2 80.6 53 62.7 0.0 1.0 E 0.00 29.883
05/15/2004 7:30 p 80.6 79.4 79.4 80.6 78.4 58 63.4 0.0 1.0 --- 0.00 29.887
05/15/2004 8:00 p 77.0 77.4 77.4 78.4 76.7 58 61.5 0.0 0.0 --- 0.00 29.889
05/15/2004 8:30 p 77.2 76.6 76.6 76.8 76.3 61 62.2 0.0 0.0 --- 0.00 29.893
05/15/2004 9:00 p 76.2 75.8 75.8 76.3 75.5 61 61.4 0.0 0.0 --- 0.00 29.906
05/16/2004 1:30 p 97.8 86.1 86.1 86.7 85.6 77 78.0 0.0 4.0 S 0.00 30.097
05/16/2004 2:00 p 88.5 87.2 87.2 88.9 85.0 45 63.3 0.0 5.0 S 0.00 30.089
05/16/2004 2:30 p 90.4 88.0 88.0 88.6 87.4 46 64.6 0.0 3.0 S 0.00 30.084
05/16/2004 3:00 p 88.5 86.5 86.5 88.0 85.3 45 62.7 1.0 5.0 S 0.00 30.077
05/16/2004 3:30 p 89.1 86.6 86.6 88.0 83.0 47 64.0 0.0 3.0 S 0.00 30.070
05/16/2004 4:00 p 81.0 81.2 81.2 83.0 80.4 49 60.2 0.0 4.0 SE 0.00 30.069
05/16/2004 4:30 p 80.0 80.0 80.0 80.4 79.2 50 59.7 0.0 4.0 S 0.00 30.069
05/16/2004 5:00 p 81.0 79.7 79.7 80.3 78.7 55 62.1 0.0 4.0 S 0.00 30.067
05/16/2004 5:30 p 78.2 78.2 78.2 79.3 77.2 52 59.2 0.0 2.0 S 0.00 30.070
05/16/2004 6:00 p 77.0 76.9 76.9 77.2 76.6 51 57.4 0.0 2.0 S 0.00 30.068
05/16/2004 6:30 p 76.0 76.3 76.3 76.7 76.0 53 57.9 0.0 1.0 --- 0.00 30.070
05/16/2004 7:00 p 75.0 75.1 75.1 76.0 73.7 59 59.8 0.0 1.0 --- 0.00 30.080
05/16/2004 7:30 p 73.7 72.8 72.8 73.7 71.9 67 61.2 0.0 0.0 --- 0.00 30.084
05/16/2004 8:00 p 71.8 71.3 71.3 71.9 70.3 74 62.6 0.0 0.0 --- 0.00 30.095
05/16/2004 8:30 p 70.4 69.3 69.3 70.3 68.6 77 61.8 0.0 0.0 --- 0.00 30.112
05/16/2004 9:00 p 67.9 67.9 67.9 68.6 67.1 80 61.5 0.0 0.0 --- 0.00 30.121
05/16/2004 9:30 p 66.7 66.7 66.7 67.1 66.2 84 61.7 0.0 0.0 --- 0.00 30.133
05/16/2004 10:00 p 65.9 65.9 65.9 66.3 65.5 87 61.9 0.0 0.0 --- 0.00 30.147
05/16/2004 10:30 p 64.8 64.8 64.8 65.5 64.3 90 61.8 0.0 0.0 --- 0.00 30.148
05/16/2004 11:00 p 64.0 64.0 64.0 64.4 63.6 91 61.3 0.0 0.0 --- 0.00 30.151
05/16/2004 11:30 p 63.1 63.1 63.1 63.6 62.6 88 59.5 0.0 0.0 --- 0.00 30.157
05/17/2004 12:00 a 62.5 62.5 62.5 62.7 62.4 82 56.9 0.0 0.0 --- 0.00 30.159
05/17/2004 12:30 a 62.1 62.1 62.1 62.5 61.6 89 58.8 0.0 0.0 --- 0.00 30.167
05/17/2004 1:00 a 61.4 61.4 61.4 61.7 60.8 89 58.1 0.0 0.0 --- 0.00 30.162
05/17/2004 1:30 a 60.4 60.4 60.4 60.8 60.1 91 57.8 0.0 0.0 --- 0.00 30.169
05/17/2004 2:00 a 60.5 60.5 60.5 61.2 60.0 86 56.3 0.0 0.0 --- 0.00 30.168
05/17/2004 2:30 a 61.4 61.4 61.4 61.5 61.2 86 57.2 0.0 0.0 --- 0.00 30.178
05/17/2004 3:00 a 61.8 61.8 61.8 62.0 61.3 80 55.6 0.0 0.0 --- 0.00 30.182
05/17/2004 3:30 a 61.5 61.5 61.5 61.9 61.3 79 54.9 0.0 0.0 --- 0.00 30.194
05/17/2004 4:00 a 61.2 61.2 61.2 61.4 61.0 79 54.6 0.0 0.0 --- 0.00 30.196
05/17/2004 4:30 a 60.5 60.5 60.5 61.1 59.8 82 55.0 0.0 0.0 --- 0.00 30.200
05/17/2004 5:00 a 58.9 58.9 58.9 59.8 58.2 86 54.7 0.0 0.0 --- 0.00 30.201
05/17/2004 5:30 a 58.2 58.2 58.2 58.4 58.0 86 54.0 0.0 0.0 --- 0.00 30.201
05/17/2004 6:00 a 57.9 57.9 57.9 58.4 57.6 86 53.7 0.0 0.0 --- 0.00 30.204
05/17/2004 6:30 a 58.7 58.7 58.7 59.3 57.8 85 54.2 0.0 0.0 --- 0.00 30.218
05/17/2004 7:00 a 60.0 60.0 60.0 60.7 59.3 82 54.5 0.0 0.0 --- 0.00 30.223
05/17/2004 7:30 a 63.9 63.9 63.9 68.8 60.8 67 52.7 0.0 0.0 --- 0.00 30.242
05/17/2004 8:00 a 65.7 65.7 65.7 68.6 64.9 81 59.7 0.0 0.0 --- 0.00 30.247
05/17/2004 8:30 a 65.0 65.0 65.0 65.2 64.9 78 58.0 0.0 2.0 NNE 0.00 30.258
05/17/2004 9:00 a 66.0 66.0 66.0 67.0 65.2 76 58.2 0.0 2.0 E 0.00 30.265
05/17/2004 9:30 a 68.4 68.0 68.0 68.6 67.0 72 58.6 0.0 2.0 NE 0.00 30.265
05/17/2004 10:00 a 67.5 67.5 67.5 68.6 67.0 75 59.3 0.0 2.0 NE 0.00 30.268
05/17/2004 10:30 a 66.9 66.9 66.9 67.4 65.5 78 59.8 0.0 3.0 NE 0.00 30.261
05/17/2004 11:00 a 67.6 67.6 67.6 69.0 65.5 72 58.3 0.0 2.0 NE 0.00 30.270
05/17/2004 11:30 a 68.4 68.4 68.4 69.1 67.6 72 59.0 0.0 3.0 NE 0.00 30.264
05/17/2004 12:00 p 67.9 67.9 67.9 68.8 67.3 73 58.9 0.0 3.0 NE 0.00 30.268
05/17/2004 12:30 p 69.0 69.0 69.0 70.4 67.9 68 58.0 0.0 3.0 NE 0.00 30.258
05/17/2004 1:00 p 72.0 71.6 71.6 73.5 70.4 64 58.8 0.0 3.0 NE 0.00 30.254
05/17/2004 1:30 p 71.0 69.9 69.9 73.4 67.6 75 61.6 1.0 3.0 NE 0.00 30.256
05/17/2004 2:00 p 66.6 66.6 66.6 67.9 65.4 78 59.5 0.0 3.0 NE 0.00 30.257
05/17/2004 2:30 p 65.3 65.3 65.3 66.1 64.5 79 58.6 0.0 3.0 NE 0.00 30.246
05/17/2004 3:00 p 65.0 65.0 65.0 65.3 64.6 81 59.0 0.0 3.0 NE 0.00 30.246
05/17/2004 3:30 p 64.1 64.1 64.1 64.7 63.7 81 58.2 0.0 2.0 NE 0.00 30.228
05/17/2004 4:00 p 63.2 63.2 63.2 63.8 62.9 83 58.0 0.0 2.0 NE 0.00 30.221
05/17/2004 4:30 p 62.5 62.5 62.5 63.0 62.1 84 57.6 0.0 2.0 NE 0.00 30.221
05/17/2004 5:00 p 61.3 61.3 61.3 62.1 61.0 86 57.1 0.0 3.0 ENE 0.00 30.207
05/17/2004 5:30 p 60.4 60.4 60.4 61.0 59.5 89 57.1 0.0 3.0 NE 0.00 30.200
05/17/2004 6:00 p 59.3 59.3 59.3 59.5 58.9 90 56.4 0.0 3.0 NE 0.00 30.199
05/17/2004 6:30 p 58.6 58.6 58.6 58.9 58.4 92 56.3 0.0 3.0 NE 0.00 30.208
05/17/2004 7:00 p 58.1 58.1 58.1 58.4 57.9 94 56.4 0.0 1.0 NE 0.00 30.191
05/17/2004 7:30 p 57.8 57.8 57.8 58.1 57.6 95 56.4 0.0 2.0 NE 0.00 30.189
05/17/2004 8:00 p 57.4 57.4 57.4 57.6 57.3 97 56.6 0.0 1.0 NE 0.00 30.176
05/17/2004 8:30 p 57.4 57.4 57.4 57.5 57.2 97 56.6 0.0 1.0 NE 0.00 30.186
05/17/2004 9:00 p 57.3 57.3 57.3 57.5 57.2 98 56.7 0.0 1.0 NE 0.00 30.192
05/17/2004 9:30 p 57.5 57.5 57.5 57.6 57.4 99 57.2 0.0 2.0 --- 0.00 30.197
05/17/2004 10:00 p 57.6 57.6 57.6 57.7 57.6 99 57.3 0.0 1.0 --- 0.00 30.199
05/17/2004 10:30 p 57.8 57.8 57.8 57.9 57.7 99 57.5 0.0 0.0 --- 0.00 30.187
05/17/2004 11:00 p 57.9 57.9 57.9 58.0 57.8 99 57.6 0.0 0.0 --- 0.00 30.180
05/17/2004 11:30 p 58.1 58.1 58.1 58.2 58.0 99 57.8 0.0 0.0 --- 0.00 30.158
05/18/2004 12:00 a 58.3 58.3 58.3 58.5 58.2 99 58.0 0.0 0.0 --- 0.00 30.158
05/18/2004 12:30 a 58.5 58.5 58.5 58.6 58.5 99 58.2 0.0 0.0 --- 0.00 30.150
05/18/2004 1:00 a 58.7 58.7 58.7 58.7 58.6 100 58.7 0.0 0.0 --- 0.00 30.133
05/18/2004 1:30 a 58.8 58.8 58.8 58.8 58.7 99 58.5 0.0 0.0 --- 0.00 30.124
05/18/2004 2:00 a 58.9 58.9 58.9 58.9 58.8 99 58.6 0.0 0.0 --- 0.00 30.117
05/18/2004 2:30 a 59.1 59.1 59.1 59.1 58.9 99 58.8 0.0 0.0 --- 0.00 30.107
05/18/2004 3:00 a 59.2 59.2 59.2 59.3 59.1 100 59.2 0.0 0.0 --- 0.00 30.094
05/18/2004 3:30 a 59.5 59.5 59.5 59.7 59.3 99 59.2 0.0 0.0 --- 0.00 30.095
05/18/2004 4:00 a 59.8 59.8 59.8 59.8 59.7 100 59.8 0.0 0.0 --- 0.00 30.094
05/18/2004 4:30 a 60.0 60.0 60.0 60.2 59.8 100 60.0 0.0 0.0 --- 0.00 30.097
05/18/2004 5:00 a 60.2 60.2 60.2 60.2 60.1 100 60.2 0.0 0.0 --- 0.00 30.079
05/18/2004 5:30 a 60.3 60.3 60.3 60.5 60.2 100 60.3 0.0 0.0 --- 0.00 30.071
05/18/2004 6:00 a 60.7 60.7 60.7 61.0 60.5 100 60.7 0.0 0.0 --- 0.00 30.080
05/18/2004 6:30 a 61.1 61.1 61.1 61.3 60.9 100 61.1 0.0 0.0 --- 0.00 30.077
05/18/2004 7:00 a 61.5 61.5 61.5 61.6 61.3 100 61.5 0.0 0.0 --- 0.00 30.077
05/18/2004 7:30 a 62.0 62.0 62.0 62.5 61.6 100 62.0 0.0 0.0 --- 0.00 30.076
05/18/2004 8:00 a 63.2 63.2 63.2 63.8 62.5 100 63.2 0.0 0.0 --- 0.00 30.073
05/18/2004 8:30 a 64.6 64.6 64.6 65.4 63.8 98 64.0 0.0 0.0 --- 0.00 30.064
05/18/2004 9:00 a 66.3 66.3 66.3 67.3 65.4 95 64.8 0.0 0.0 --- 0.00 30.052
05/18/2004 9:30 a 70.0 68.3 68.3 70.0 67.4 90 65.3 0.0 0.0 --- 0.00 30.049
05/18/2004 10:00 a 73.0 71.2 71.2 73.0 70.0 84 66.1 0.0 0.0 --- 0.00 30.038
05/18/2004 10:30 a 76.0 74.0 74.0 74.5 73.0 80 67.4 0.0 1.0 NE 0.00 30.027
05/18/2004 11:00 a 79.4 76.9 76.9 78.3 74.4 72 67.2 0.0 2.0 NE 0.00 30.010
05/18/2004 11:30 a 81.0 79.0 79.0 79.6 78.2 70 68.4 0.0 3.0 N 0.00 30.001
05/18/2004 12:00 p 83.4 80.5 80.5 81.6 79.3 62 66.3 0.0 3.0 N 0.00 29.988
05/18/2004 12:30 p 84.3 82.1 82.1 82.8 81.6 61 67.3 0.0 3.0 NNE 0.00 29.978
05/18/2004 1:00 p 86.2 82.7 82.7 84.1 79.8 63 68.8 0.0 2.0 WSW 0.00 29.971
05/18/2004 1:30 p 81.0 79.2 79.2 79.8 78.8 67 67.3 0.0 2.0 --- 0.00 29.957
05/18/2004 2:00 p 81.0 78.5 78.5 78.9 77.6 69 67.5 0.0 0.0 --- 0.00 29.958
05/18/2004 2:30 p 81.0 81.3 81.3 89.3 77.3 49 60.3 0.0 1.0 WSW 0.00 29.946
05/18/2004 3:00 p 93.5 89.7 89.7 90.5 89.2 45 65.6 0.0 3.0 SW 0.00 29.928
05/18/2004 3:30 p 90.0 87.0 87.0 89.3 85.3 50 66.1 0.0 3.0 SE 0.00 29.910
05/18/2004 4:00 p 86.8 84.8 84.8 85.6 84.0 49 63.5 0.0 6.0 NNW 0.00 29.898
05/18/2004 4:30 p 87.6 85.0 85.0 86.2 83.2 53 66.0 0.0 3.0 N 0.00 29.907
05/18/2004 5:00 p 85.0 82.9 82.9 83.4 82.3 54 64.6 0.0 3.0 SSW 0.00 29.891
05/18/2004 5:30 p 83.9 81.6 81.6 82.3 80.8 59 65.9 0.0 2.0 NNE 0.00 29.881
05/18/2004 6:00 p 83.0 80.7 80.7 80.8 80.3 60 65.5 0.0 2.0 NE 0.00 29.874
05/18/2004 6:30 p 82.2 79.8 79.8 80.7 79.0 62 65.6 0.0 1.0 NE 0.00 29.872
05/18/2004 7:00 p 81.0 78.6 78.6 78.9 78.4 61 64.0 0.0 4.0 NE 0.00 29.861
05/18/2004 7:30 p 79.5 77.6 77.6 78.5 76.8 65 64.9 0.0 0.0 --- 0.00 29.858
05/18/2004 8:00 p 77.6 76.2 76.2 76.8 75.7 68 64.9 0.0 0.0 --- 0.00 29.862
05/18/2004 8:30 p 77.0 75.1 75.1 75.7 74.4 71 65.1 0.0 0.0 --- 0.00 29.863
05/18/2004 9:00 p 76.0 74.2 74.2 74.4 74.0 73 65.0 0.0 0.0 --- 0.00 29.870
05/18/2004 9:30 p 76.0 74.2 74.2 74.3 74.1 75 65.8 0.0 0.0 --- 0.00 29.885
05/18/2004 10:00 p 76.0 74.0 74.0 74.1 73.9 77 66.3 0.0 1.0 N 0.00 29.888
05/18/2004 10:30 p 75.4 73.3 73.3 74.0 71.7 92 70.8 0.0 3.0 S 0.00 29.874
05/18/2004 11:00 p 73.6 71.0 71.0 71.7 70.6 93 68.9 0.0 0.0 --- 0.00 29.877
05/18/2004 11:30 p 73.4 70.7 70.7 70.9 70.6 92 68.3 0.0 0.0 --- 0.00 29.871
05/19/2004 12:00 a 73.0 70.8 70.8 71.0 70.6 85 66.1 0.0 1.0 SW 0.00 29.876
05/19/2004 12:30 a 71.8 70.4 70.4 70.6 70.3 79 63.6 0.0 2.0 SSW 0.00 29.873
05/19/2004 1:00 a 71.4 70.2 70.2 70.3 70.0 77 62.7 0.0 1.0 --- 0.00 29.868
05/19/2004 1:30 a 71.6 69.6 69.6 69.9 69.4 78 62.4 0.0 0.0 --- 0.00 29.868
05/19/2004 2:00 a 70.8 69.2 69.2 69.4 68.9 79 62.4 0.0 1.0 S 0.00 29.862
05/19/2004 2:30 a 70.8 68.9 68.9 68.9 68.8 79 62.1 0.0 0.0 --- 0.00 29.866
05/19/2004 3:00 a 71.0 68.7 68.7 68.9 68.2 81 62.6 0.0 0.0 --- 0.00 29.864
05/19/2004 3:30 a 67.9 67.9 67.9 68.2 67.3 84 62.9 0.0 0.0 --- 0.00 29.862
05/19/2004 4:00 a 66.7 66.7 66.7 67.3 66.2 88 63.0 0.0 0.0 --- 0.00 29.866
05/19/2004 4:30 a 66.0 66.0 66.0 66.2 65.9 89 62.7 0.0 0.0 --- 0.00 29.872
05/19/2004 5:00 a 65.7 65.7 65.7 66.0 65.4 91 63.0 0.0 0.0 --- 0.00 29.877
05/19/2004 5:30 a 65.4 65.4 65.4 65.5 65.3 92 63.0 0.0 0.0 --- 0.00 29.886
05/19/2004 6:00 a 65.1 65.1 65.1 65.3 65.0 93 63.0 0.0 0.0 --- 0.00 29.887
05/19/2004 6:30 a 65.2 65.2 65.2 65.3 65.1 94 63.4 0.0 0.0 --- 0.00 29.888
05/19/2004 7:00 a 65.2 65.2 65.2 65.3 65.2 95 63.7 0.0 0.0 --- 0.00 29.907
05/19/2004 7:30 a 65.9 65.9 65.9 66.6 65.3 93 63.8 0.0 0.0 --- 0.00 29.922
05/19/2004 8:00 a 67.2 67.2 67.2 67.6 66.6 89 63.9 0.0 0.0 --- 0.00 29.925
05/19/2004 8:30 a 67.9 67.9 67.9 68.2 67.5 87 63.9 0.0 0.0 --- 0.00 29.931
05/19/2004 9:00 a 67.6 67.6 67.6 68.1 67.3 92 65.2 0.0 0.0 --- 0.00 29.934
05/19/2004 9:30 a 67.9 67.9 67.9 68.3 67.3 89 64.5 0.0 0.0 --- 0.00 29.937
05/19/2004 10:00 a 66.8 66.8 66.8 68.1 66.3 100 66.8 0.0 0.0 --- 0.03 29.946
05/19/2004 10:30 a 66.4 66.4 66.4 66.5 66.3 100 66.4 0.0 0.0 --- 0.07 29.958
05/19/2004 11:00 a 66.5 66.5 66.5 66.6 66.5 100 66.5 0.0 0.0 --- 0.07 29.964
05/19/2004 11:30 a 66.7 66.7 66.7 66.8 66.5 100 66.7 0.0 0.0 --- 0.03 29.958
05/19/2004 12:00 p 67.1 67.1 67.1 67.4 66.5 100 67.1 0.0 0.0 --- 0.01 29.962
05/19/2004 12:30 p 67.1 67.1 67.1 67.7 66.8 100 67.1 0.0 0.0 --- 0.01 29.961
05/19/2004 1:00 p 67.2 67.2 67.2 67.9 66.8 100 67.2 0.0 0.0 --- 0.00 29.959
05/19/2004 1:30 p 66.8 66.8 66.8 67.2 66.5 100 66.8 0.0 0.0 --- 0.01 29.968
05/19/2004 2:00 p 66.8 66.8 66.8 67.3 66.6 100 66.8 0.0 0.0 --- 0.01 29.971
05/19/2004 2:30 p 66.7 66.7 66.7 66.9 66.6 100 66.7 0.0 0.0 --- 0.01 29.966
05/19/2004 3:00 p 66.6 66.6 66.6 66.8 66.4 100 66.6 0.0 0.0 --- 0.01 29.964
05/19/2004 3:30 p 65.4 65.4 65.4 66.6 64.7 100 65.4 0.0 0.0 --- 0.00 29.964
05/19/2004 4:00 p 64.5 64.5 64.5 64.8 64.4 100 64.5 0.0 0.0 --- 0.01 29.962
05/19/2004 4:30 p 64.5 64.5 64.5 64.7 64.1 100 64.5 0.0 0.0 --- 0.00 29.966
05/19/2004 5:00 p 64.1 64.1 64.1 64.3 64.0 100 64.1 0.0 0.0 --- 0.00 29.969
05/19/2004 5:30 p 64.7 64.7 64.7 65.1 64.3 100 64.7 0.0 0.0 --- 0.00 29.972
05/19/2004 6:00 p 65.1 65.1 65.1 65.6 64.6 100 65.1 0.0 0.0 --- 0.00 29.977
05/19/2004 6:30 p 64.0 64.0 64.0 64.6 63.7 100 64.0 0.0 0.0 --- 0.00 29.979
05/19/2004 7:00 p 63.6 63.6 63.6 63.9 63.5 100 63.6 0.0 0.0 --- 0.00 29.984
05/19/2004 7:30 p 63.3 63.3 63.3 63.8 62.4 100 63.3 0.0 0.0 --- 0.00 29.988
05/19/2004 8:00 p 61.7 61.7 61.7 62.4 61.4 100 61.7 0.0 0.0 --- 0.00 29.997
05/19/2004 8:30 p 60.9 60.9 60.9 61.4 60.4 100 60.9 0.0 0.0 --- 0.00 29.999
05/19/2004 9:00 p 59.7 59.7 59.7 60.4 59.2 100 59.7 0.0 0.0 --- 0.00 30.013
05/19/2004 9:30 p 58.8 58.8 58.8 59.2 58.6 100 58.8 0.0 0.0 --- 0.00 30.031
05/19/2004 10:00 p 58.3 58.3 58.3 58.6 57.9 100 58.3 0.0 0.0 --- 0.00 30.039
05/19/2004 10:30 p 57.5 57.5 57.5 57.9 57.1 100 57.5 0.0 0.0 --- 0.00 30.047
05/19/2004 11:00 p 56.6 56.6 56.6 57.1 56.2 100 56.6 0.0 0.0 --- 0.00 30.054
05/19/2004 11:30 p 55.8 55.8 55.8 56.2 55.5 100 55.8 0.0 0.0 --- 0.00 30.058
05/20/2004 12:00 a 55.3 55.3 55.3 55.5 55.0 100 55.3 0.0 0.0 --- 0.00 30.058
05/20/2004 12:30 a 54.8 54.8 54.8 55.1 54.7 100 54.8 0.0 0.0 --- 0.00 30.062
05/20/2004 1:00 a 54.5 54.5 54.5 54.8 54.2 100 54.5 0.0 0.0 --- 0.00 30.064
05/20/2004 1:30 a 54.1 54.1 54.1 54.2 54.0 100 54.1 0.0 0.0 --- 0.00 30.072
05/20/2004 2:00 a 55.7 55.7 55.7 57.2 54.1 100 55.7 0.0 0.0 --- 0.00 30.073
05/20/2004 2:30 a 57.7 57.7 57.7 58.0 57.2 100 57.7 0.0 1.0 --- 0.00 30.067
05/20/2004 3:00 a 58.2 58.2 58.2 58.3 58.0 100 58.2 0.0 0.0 --- 0.00 30.074
05/20/2004 3:30 a 58.4 58.4 58.4 58.5 58.2 100 58.4 0.0 0.0 --- 0.00 30.075
05/20/2004 4:00 a 58.3 58.3 58.3 58.4 58.2 100 58.3 0.0 0.0 --- 0.00 30.087
05/20/2004 4:30 a 57.9 57.9 57.9 58.3 57.6 100 57.9 0.0 0.0 --- 0.00 30.088
05/20/2004 5:00 a 57.4 57.4 57.4 57.6 57.2 100 57.4 0.0 0.0 --- 0.00 30.100
05/20/2004 5:30 a 57.1 57.1 57.1 57.3 57.0 100 57.1 0.0 0.0 --- 0.00 30.096
05/20/2004 6:00 a 57.3 57.3 57.3 57.3 57.2 100 57.3 0.0 0.0 --- 0.00 30.098
05/20/2004 6:30 a 57.4 57.4 57.4 57.6 57.3 100 57.4 0.0 0.0 --- 0.00 30.096
05/20/2004 7:00 a 57.9 57.9 57.9 58.4 57.5 100 57.9 0.0 0.0 --- 0.00 30.100
05/20/2004 7:30 a 58.9 58.9 58.9 59.1 58.4 100 58.9 0.0 0.0 --- 0.00 30.123
05/20/2004 8:00 a 59.4 59.4 59.4 59.9 59.0 100 59.4 0.0 0.0 --- 0.00 30.124
05/20/2004 8:30 a 60.2 60.2 60.2 60.8 59.8 100 60.2 0.0 0.0 --- 0.00 30.134
05/20/2004 9:00 a 61.8 61.8 61.8 63.7 60.7 100 61.8 0.0 0.0 --- 0.00 30.141
05/20/2004 9:30 a 64.7 64.7 64.7 66.1 63.6 99 64.4 0.0 2.0 ESE 0.00 30.134
05/20/2004 10:00 a 64.4 64.4 64.4 64.7 64.2 98 63.8 0.0 2.0 NNE 0.00 30.134
05/20/2004 10:30 a 66.1 66.1 66.1 67.0 64.7 93 64.0 0.0 2.0 NNE 0.00 30.134
05/20/2004 11:00 a 67.8 67.8 67.8 69.1 66.5 90 64.8 0.0 3.0 NE 0.00 30.139
05/20/2004 11:30 a 67.5 67.5 67.5 67.8 67.4 89 64.1 0.0 3.0 NE 0.00 30.146
05/20/2004 12:00 p 71.0 68.6 68.6 69.2 67.6 88 64.9 0.0 3.0 NE 0.00 30.141
05/20/2004 12:30 p 72.0 71.7 71.7 77.1 69.2 70 61.4 0.0 4.0 NE 0.00 30.129
05/20/2004 1:00 p 79.0 79.3 79.3 80.5 77.1 43 54.9 0.0 3.0 NE 0.00 30.121
05/20/2004 1:30 p 79.0 80.3 80.3 81.2 79.6 35 50.2 1.0 4.0 NE 0.00 30.113
05/20/2004 2:00 p 78.6 80.0 80.0 80.6 79.3 33 48.3 1.0 4.0 NNE 0.00 30.102
05/20/2004 2:30 p 75.0 77.0 77.0 79.6 73.8 33 45.7 1.0 4.0 NE 0.00 30.088
05/20/2004 3:00 p 77.0 79.2 79.2 79.9 78.2 30 45.1 1.0 4.0 NE 0.00 30.083
05/20/2004 3:30 p 76.3 77.5 77.5 78.1 76.1 33 46.2 1.0 4.0 NE 0.00 30.059
05/20/2004 4:00 p 71.4 73.0 73.0 76.0 71.5 42 48.6 0.0 4.0 NE 0.00 30.054
05/20/2004 4:30 p 69.0 71.0 71.0 71.7 70.1 45 48.6 0.0 4.0 NE 0.00 30.043
05/20/2004 5:00 p 68.0 69.7 69.7 70.4 69.3 46 48.0 0.0 4.0 NE 0.00 30.039
05/20/2004 5:30 p 67.8 68.8 68.8 70.1 67.9 54 51.5 0.0 3.0 NE 0.00 30.036
05/20/2004 6:00 p 66.9 66.9 66.9 67.9 66.2 59 52.1 0.0 2.0 ENE 0.00 30.029
05/20/2004 6:30 p 65.1 65.1 65.1 66.1 64.2 65 53.1 0.0 1.0 ENE 0.00 30.015
05/20/2004 7:00 p 63.8 63.8 63.8 64.2 63.4 68 53.0 0.0 2.0 NE 0.00 30.007
05/20/2004 7:30 p 63.1 63.1 63.1 63.5 62.6 72 53.9 0.0 1.0 --- 0.00 30.008
05/20/2004 8:00 p 62.7 62.7 62.7 62.9 62.6 69 52.4 0.0 0.0 --- 0.00 30.023
05/20/2004 8:30 p 61.9 61.9 61.9 62.9 61.0 77 54.6 0.0 0.0 --- 0.00 30.020
05/20/2004 9:00 p 61.0 61.0 61.0 61.1 60.7 74 52.7 0.0 0.0 --- 0.00 30.035
05/20/2004 9:30 p 60.3 60.3 60.3 60.7 60.0 76 52.7 0.0 0.0 --- 0.00 30.018
05/20/2004 10:00 p 59.7 59.7 59.7 60.0 59.4 79 53.2 0.0 0.0 --- 0.00 30.022
05/20/2004 10:30 p 59.3 59.3 59.3 59.4 59.0 80 53.1 0.0 0.0 --- 0.00 30.012
05/20/2004 11:00 p 58.7 58.7 58.7 59.1 58.4 84 53.9 0.0 0.0 --- 0.00 30.013
05/20/2004 11:30 p 58.9 58.9 58.9 59.5 58.4 81 53.1 0.0 0.0 --- 0.00 29.988
05/21/2004 12:00 a 59.8 59.8 59.8 60.3 59.5 81 54.0 0.0 0.0 --- 0.00 29.972
05/21/2004 12:30 a 60.6 60.6 60.6 60.9 60.3 79 54.1 0.0 0.0 --- 0.00 29.976
05/21/2004 1:00 a 60.8 60.8 60.8 60.9 60.6 80 54.6 0.0 0.0 --- 0.00 29.967
05/21/2004 1:30 a 60.5 60.5 60.5 60.6 60.4 80 54.3 0.0 0.0 --- 0.00 29.954
05/21/2004 2:00 a 60.7 60.7 60.7 60.8 60.6 81 54.8 0.0 0.0 --- 0.00 29.951
05/21/2004 2:30 a 60.8 60.8 60.8 60.8 60.7 80 54.6 0.0 0.0 --- 0.00 29.941
05/21/2004 3:00 a 60.8 60.8 60.8 60.8 60.7 79 54.3 0.0 0.0 --- 0.00 29.929
05/21/2004 3:30 a 60.6 60.6 60.6 60.8 60.4 80 54.4 0.0 0.0 --- 0.00 29.922
05/21/2004 4:00 a 60.7 60.7 60.7 60.8 60.5 81 54.8 0.0 0.0 --- 0.00 29.905
05/21/2004 4:30 a 60.9 60.9 60.9 61.0 60.8 81 55.0 0.0 0.0 --- 0.00 29.921
05/21/2004 5:00 a 61.0 61.0 61.0 61.0 60.9 83 55.8 0.0 0.0 --- 0.00 29.913
05/21/2004 5:30 a 61.0 61.0 61.0 61.1 60.9 85 56.5 0.0 0.0 --- 0.00 29.902
05/21/2004 6:00 a 61.0 61.0 61.0 61.1 60.9 89 57.7 0.0 0.0 --- 0.00 29.880
05/21/2004 6:30 a 60.9 60.9 60.9 61.0 60.8 90 58.0 0.0 0.0 --- 0.00 29.885
05/21/2004 7:00 a 61.0 61.0 61.0 61.1 60.9 93 59.0 0.0 0.0 --- 0.00 29.893
05/21/2004 7:30 a 61.0 61.0 61.0 61.1 60.9 96 59.9 0.0 0.0 --- 0.00 29.911
05/21/2004 8:00 a 61.4 61.4 61.4 61.7 61.1 98 60.8 0.0 0.0 --- 0.00 29.929
05/21/2004 8:30 a 62.7 62.7 62.7 63.7 61.7 96 61.5 0.0 0.0 --- 0.00 29.940
05/21/2004 9:00 a 64.0 64.0 64.0 64.1 63.7 94 62.2 0.0 0.0 --- 0.00 29.942
05/21/2004 9:30 a 64.6 64.6 64.6 65.7 64.1 92 62.2 0.0 0.0 --- 0.00 29.935
05/21/2004 10:00 a 67.1 67.1 67.1 68.7 65.7 85 62.4 0.0 1.0 --- 0.00 29.919
05/21/2004 10:30 a 72.0 70.3 70.3 71.5 68.7 80 63.8 0.0 0.0 --- 0.00 29.910
05/21/2004 11:00 a 73.8 72.0 72.0 72.8 71.4 79 65.1 0.0 0.0 --- 0.00 29.891
05/21/2004 11:30 a 74.6 73.3 73.3 73.7 72.8 76 65.3 0.0 1.0 E 0.00 29.899
05/21/2004 12:00 p 76.0 74.3 74.3 75.0 73.5 75 65.9 0.0 1.0 E 0.00 29.899
05/21/2004 12:30 p 77.0 75.0 75.0 76.2 74.6 73 65.8 0.0 2.0 SW 0.00 29.892
05/21/2004 1:00 p 79.4 76.9 76.9 77.7 76.2 72 67.2 0.0 3.0 ESE 0.00 29.887
05/21/2004 1:30 p 81.0 79.0 79.0 80.3 77.2 70 68.4 0.0 2.0 SSW 0.00 29.875
05/21/2004 2:00 p 80.4 77.5 77.5 78.2 76.7 72 67.8 0.0 1.0 SSW 0.00 29.854
05/21/2004 2:30 p 81.0 78.8 78.8 79.5 77.6 68 67.4 0.0 2.0 SSW 0.00 29.860
05/21/2004 3:00 p 81.6 79.2 79.2 80.6 77.1 73 69.8 0.0 1.0 SSW 0.00 29.847
05/21/2004 3:30 p 79.2 76.8 76.8 78.1 76.0 71 66.7 0.0 0.0 --- 0.00 29.847
05/21/2004 4:00 p 80.2 78.3 78.3 79.0 78.0 71 68.1 0.0 0.0 --- 0.00 29.849
05/21/2004 4:30 p 82.6 80.1 80.1 80.9 79.0 66 67.7 0.0 2.0 SSW 0.00 29.842
05/21/2004 5:00 p 82.9 80.4 80.4 80.6 80.3 69 69.3 0.0 1.0 S 0.00 29.835
05/21/2004 5:30 p 83.4 79.9 79.9 80.4 79.6 72 70.1 0.0 0.0 --- 0.00 29.838
05/21/2004 6:00 p 81.2 79.2 79.2 79.6 78.4 71 69.0 0.0 1.0 --- 0.00 29.837
05/21/2004 6:30 p 80.8 77.7 77.7 78.4 77.3 74 68.8 0.0 0.0 --- 0.00 29.832
05/21/2004 7:00 p 80.2 76.9 76.9 77.3 76.5 76 68.8 0.0 0.0 --- 0.00 29.833
05/21/2004 7:30 p 78.9 76.0 76.0 76.5 75.4 79 69.0 0.0 0.0 --- 0.00 29.838
05/21/2004 8:00 p 77.3 74.6 74.6 75.4 73.8 83 69.1 0.0 0.0 --- 0.00 29.826
05/21/2004 8:30 p 75.0 73.4 73.4 73.8 73.0 84 68.3 0.0 0.0 --- 0.00 29.831
05/21/2004 9:00 p 74.0 72.2 72.2 73.0 71.4 88 68.5 0.0 0.0 --- 0.00 29.846
05/21/2004 9:30 p 73.0 70.9 70.9 71.4 70.3 90 67.8 0.0 0.0 --- 0.00 29.863
05/21/2004 10:00 p 72.6 69.9 69.9 70.3 69.6 93 67.8 0.0 0.0 --- 0.00 29.869
05/21/2004 10:30 p 71.4 69.1 69.1 69.6 68.6 94 67.3 0.0 0.0 --- 0.00 29.856
05/21/2004 11:00 p 70.0 68.4 68.4 68.6 68.2 95 66.9 0.0 0.0 --- 0.00 29.851
05/21/2004 11:30 p 70.0 68.0 68.0 68.2 67.9 98 67.4 0.0 0.0 --- 0.00 29.844
05/22/2004 12:00 a 70.0 68.1 68.1 68.4 67.9 99 67.8 0.0 0.0 --- 0.00 29.843
05/22/2004 12:30 a 70.0 68.4 68.4 68.5 68.3 99 68.1 0.0 0.0 --- 0.00 29.837
05/22/2004 1:00 a 67.8 67.8 67.8 68.3 67.4 100 67.8 0.0 0.0 --- 0.00 29.825
05/22/2004 1:30 a 67.1 67.1 67.1 67.4 66.7 100 67.1 0.0 0.0 --- 0.00 29.800
05/22/2004 2:00 a 67.0 67.0 67.0 67.5 66.7 100 67.0 0.0 0.0 --- 0.00 29.797
05/22/2004 2:30 a 67.7 67.7 67.7 68.0 67.5 100 67.7 0.0 0.0 --- 0.00 29.794
05/22/2004 3:00 a 70.0 68.2 68.2 68.3 68.0 100 68.2 0.0 0.0 --- 0.00 29.782
05/22/2004 3:30 a 70.0 68.3 68.3 68.4 68.3 100 68.3 0.0 0.0 --- 0.00 29.781
05/22/2004 4:00 a 70.0 68.3 68.3 68.4 68.2 100 68.3 0.0 0.0 --- 0.00 29.779
05/22/2004 4:30 a 70.0 68.4 68.4 68.6 68.4 100 68.4 0.0 0.0 --- 0.00 29.759
05/22/2004 5:00 a 72.0 68.6 68.6 68.7 68.5 100 68.6 0.0 1.0 E 0.00 29.755
05/22/2004 5:30 a 70.0 68.2 68.2 68.5 68.1 100 68.2 0.0 0.0 --- 0.00 29.767
05/22/2004 6:00 a 70.0 68.0 68.0 68.2 68.0 100 68.0 0.0 0.0 --- 0.00 29.804
05/22/2004 6:30 a 70.0 68.3 68.3 68.5 68.2 100 68.3 0.0 0.0 --- 0.00 29.805
05/22/2004 7:00 a 71.9 68.6 68.6 68.7 68.5 99 68.3 0.0 0.0 --- 0.00 29.820
05/22/2004 7:30 a 71.8 68.9 68.9 69.2 68.7 98 68.3 0.0 0.0 --- 0.00 29.820
05/22/2004 8:00 a 71.6 69.4 69.4 69.9 69.2 96 68.2 0.0 0.0 --- 0.00 29.810
05/22/2004 8:30 a 73.4 70.6 70.6 71.4 69.9 92 68.2 0.0 0.0 --- 0.00 29.803
05/22/2004 9:00 a 75.0 72.9 72.9 74.4 71.4 84 67.8 0.0 1.0 E 0.00 29.823
05/22/2004 9:30 a 76.0 73.6 73.6 74.6 72.5 88 69.8 0.0 1.0 --- 0.00 29.826
05/22/2004 10:00 a 76.0 73.6 73.6 74.7 72.4 82 67.8 0.0 1.0 ESE 0.00 29.808
05/22/2004 10:30 a 78.7 76.1 76.1 77.1 74.7 77 68.4 0.0 2.0 W 0.00 29.779
05/22/2004 11:00 a 79.8 77.4 77.4 78.3 76.6 74 68.5 0.0 1.0 W 0.00 29.752
05/22/2004 11:30 a 81.0 79.0 79.0 79.9 78.3 68 67.5 0.0 2.0 WNW 0.00 29.755
05/22/2004 12:00 p 81.2 78.9 78.9 79.9 78.2 71 68.7 0.0 0.0 --- 0.00 29.760
05/22/2004 12:30 p 82.1 80.1 80.1 83.4 78.5 61 65.4 0.0 0.0 --- 0.00 29.772
05/22/2004 1:00 p 93.8 89.7 89.7 92.8 83.4 46 66.2 0.0 1.0 SSE 0.00 29.759
05/22/2004 1:30 p 98.0 93.4 93.4 94.9 92.8 45 68.9 0.0 3.0 SSW 0.00 29.751
05/22/2004 2:00 p 98.2 94.5 94.5 96.1 91.9 38 65.0 0.0 1.0 --- 0.00 29.728
05/22/2004 2:30 p 102.0 97.5 97.5 98.0 96.0 34 64.4 0.0 4.0 SW 0.00 29.720
05/22/2004 3:00 p 101.5 97.6 97.6 98.3 97.2 33 63.7 0.0 4.0 SSW 0.00 29.716
05/22/2004 3:30 p 104.0 98.6 98.6 99.3 97.7 35 66.2 0.0 5.0 SW 0.00 29.712
05/22/2004 4:00 p 103.5 98.1 98.1 99.3 94.9 37 67.4 0.0 4.0 WSW 0.00 29.706
05/22/2004 4:30 p 97.6 93.2 93.2 96.2 89.2 44 68.1 0.0 3.0 WSW 0.00 29.701
05/22/2004 5:00 p 92.3 87.7 87.7 89.2 86.6 51 67.3 0.0 0.0 --- 0.00 29.705
05/22/2004 5:30 p 94.6 89.4 89.4 91.6 86.2 52 69.5 0.0 0.0 --- 0.00 29.701
05/22/2004 6:00 p 87.4 84.9 84.9 86.2 84.4 52 65.3 0.0 3.0 WNW 0.00 29.694
05/22/2004 6:30 p 86.8 83.9 83.9 84.6 82.9 58 67.6 0.0 2.0 WNW 0.00 29.691
05/22/2004 7:00 p 84.9 82.2 82.2 82.9 81.4 63 68.4 0.0 0.0 --- 0.00 29.685
05/22/2004 7:30 p 84.0 80.7 80.7 81.4 80.2 65 67.9 0.0 0.0 --- 0.00 29.688
05/22/2004 8:00 p 81.0 79.3 79.3 80.2 78.3 70 68.7 0.0 0.0 --- 0.00 29.691
05/22/2004 8:30 p 80.4 77.5 77.5 78.3 76.9 72 67.8 0.0 0.0 --- 0.00 29.698
05/22/2004 9:00 p 78.5 76.3 76.3 76.9 75.7 75 67.8 0.0 0.0 --- 0.00 29.693
05/22/2004 9:30 p 77.0 75.1 75.1 75.7 74.8 78 67.8 0.0 0.0 --- 0.00 29.707
05/22/2004 10:00 p 77.0 74.5 74.5 74.8 74.3 79 67.6 0.0 0.0 --- 0.00 29.724
05/22/2004 10:30 p 77.0 74.8 74.8 75.3 74.4 74 66.0 0.0 3.0 WNW 0.00 29.742
05/22/2004 11:00 p 73.8 72.4 72.4 74.4 70.7 79 65.5 0.0 2.0 WNW 0.00 29.751
05/22/2004 11:30 p 71.0 69.3 69.3 70.7 68.3 84 64.3 0.0 2.0 WNW 0.00 29.756
05/23/2004 12:00 a 67.3 67.3 67.3 68.3 66.2 87 63.3 0.0 2.0 WNW 0.00 29.746
05/23/2004 12:30 a 65.4 65.4 65.4 66.2 64.6 89 62.1 0.0 2.0 WNW 0.00 29.742
05/23/2004 1:00 a 63.8 63.8 63.8 64.6 63.4 91 61.1 0.0 2.0 ENE 0.00 29.743
05/23/2004 1:30 a 62.8 62.8 62.8 63.4 62.2 92 60.4 0.0 2.0 E 0.00 29.733
05/23/2004 2:00 a 61.7 61.7 61.7 62.2 61.6 92 59.4 0.0 2.0 E 0.00 29.732
05/23/2004 2:30 a 61.3 61.3 61.3 61.6 61.1 93 59.3 0.0 1.0 E 0.00 29.719
05/23/2004 3:00 a 60.8 60.8 60.8 61.1 60.4 93 58.8 0.0 2.0 E 0.00 29.710
05/23/2004 3:30 a 60.3 60.3 60.3 60.4 60.3 94 58.6 0.0 1.0 E 0.00 29.712
05/23/2004 4:00 a 60.6 60.6 60.6 60.7 60.4 93 58.6 0.0 0.0 --- 0.00 29.703
05/23/2004 4:30 a 60.7 60.7 60.7 60.8 60.7 94 59.0 0.0 0.0 --- 0.00 29.701
05/23/2004 5:00 a 60.8 60.8 60.8 60.8 60.7 94 59.1 0.0 0.0 --- 0.00 29.706
05/23/2004 5:30 a 60.7 60.7 60.7 60.8 60.7 94 59.0 0.0 0.0 --- 0.00 29.705
05/23/2004 6:00 a 60.7 60.7 60.7 60.7 60.6 94 59.0 0.0 0.0 --- 0.00 29.700
05/23/2004 6:30 a 60.5 60.5 60.5 60.7 60.4 94 58.8 0.0 0.0 --- 0.00 29.700
05/23/2004 7:00 a 60.6 60.6 60.6 60.7 60.5 94 58.9 0.0 0.0 --- 0.00 29.701
05/23/2004 7:30 a 61.1 61.1 61.1 61.6 60.7 92 58.8 0.0 0.0 --- 0.00 29.702
05/23/2004 8:00 a 62.1 62.1 62.1 63.0 61.5 90 59.1 0.0 0.0 --- 0.00 29.710
05/23/2004 8:30 a 63.7 63.7 63.7 64.4 63.0 88 60.1 0.0 2.0 SSE 0.00 29.709
05/23/2004 9:00 a 65.7 65.7 65.7 67.0 64.4 84 60.7 0.0 0.0 --- 0.00 29.713
05/23/2004 9:30 a 70.0 68.3 68.3 70.2 66.9 80 61.9 0.0 2.0 SSE 0.00 29.716
05/23/2004 10:00 a 73.4 72.1 72.1 73.3 70.2 77 64.5 0.0 2.0 S 0.00 29.709
05/23/2004 10:30 a 74.7 73.4 73.4 74.6 72.8 77 65.8 0.0 1.0 S 0.00 29.706
05/23/2004 11:00 a 79.2 77.0 77.0 79.6 74.6 71 66.9 0.0 2.0 W 0.00 29.701
05/23/2004 11:30 a 84.6 81.0 81.0 81.5 79.6 68 69.5 0.0 1.0 --- 0.00 29.700
05/23/2004 12:00 p 85.8 83.0 83.0 84.8 81.5 62 68.6 0.0 1.0 WSW 0.00 29.691
05/23/2004 12:30 p 90.6 86.7 86.7 89.6 84.8 52 67.0 0.0 4.0 WNW 0.00 29.685
05/23/2004 1:00 p 97.2 94.1 94.1 97.3 89.6 38 64.6 0.0 3.0 W 0.00 29.667
05/23/2004 1:30 p 102.0 98.3 98.3 99.5 97.3 34 65.1 0.0 2.0 W 0.00 29.660
05/23/2004 2:00 p 107.1 100.7 100.7 102.0 99.5 33 66.4 0.0 4.0 SSW 0.00 29.655
05/23/2004 2:30 p 106.4 98.6 98.6 100.8 93.5 39 69.4 0.0 2.0 NW 0.00 29.647
05/23/2004 3:00 p 98.4 94.0 94.0 97.1 91.7 41 66.7 0.0 4.0 WSW 0.00 29.650
05/23/2004 3:30 p 99.4 95.8 95.8 98.4 92.3 36 64.6 0.0 1.0 NW 0.00 29.642
05/23/2004 4:00 p 100.2 95.6 95.6 99.1 92.1 38 66.0 0.0 2.0 ENE 0.00 29.636
05/23/2004 4:30 p 103.0 95.0 95.0 97.6 91.1 48 72.2 0.0 2.0 ENE 0.00 29.631
05/23/2004 5:00 p 92.9 90.3 90.3 91.0 89.9 43 64.8 0.0 3.0 SE 0.00 29.632
05/23/2004 5:30 p 97.8 90.0 90.0 93.2 85.3 57 72.7 0.0 5.0 WSW 0.00 29.632
05/23/2004 6:00 p 88.6 84.1 84.1 85.3 83.1 64 70.6 0.0 4.0 WSW 0.00 29.628
05/23/2004 6:30 p 87.8 82.7 82.7 83.1 82.3 67 70.6 0.0 0.0 --- 0.00 29.636
05/23/2004 7:00 p 85.8 81.8 81.8 82.3 81.7 66 69.3 0.0 0.0 --- 0.00 29.639
05/23/2004 7:30 p 85.2 82.3 82.3 82.5 81.9 64 68.9 0.0 0.0 --- 0.00 29.643
05/23/2004 8:00 p 84.4 81.4 81.4 82.1 80.5 67 69.4 0.0 0.0 --- 0.00 29.642
05/23/2004 8:30 p 83.0 79.8 79.8 80.5 79.1 70 69.2 0.0 0.0 --- 0.00 29.640
05/23/2004 9:00 p 80.6 78.3 78.3 79.1 77.5 73 68.9 0.0 0.0 --- 0.00 29.642
05/23/2004 9:30 p 80.4 76.7 76.7 77.5 76.1 77 69.0 0.0 0.0 --- 0.00 29.644
05/23/2004 10:00 p 78.8 75.8 75.8 76.1 75.7 78 68.5 0.0 0.0 --- 0.00 29.657
05/23/2004 10:30 p 77.0 75.0 75.0 75.7 74.5 79 68.1 0.0 0.0 --- 0.00 29.668
05/23/2004 11:00 p 76.0 74.1 74.1 74.6 73.3 83 68.6 0.0 0.0 --- 0.00 29.665
05/23/2004 11:30 p 75.0 72.7 72.7 73.3 72.4 84 67.6 0.0 0.0 --- 0.00 29.656
05/24/2004 12:00 a 75.0 72.7 72.7 72.9 72.3 86 68.3 0.0 0.0 --- 0.00 29.659
05/24/2004 12:30 a 74.0 71.9 71.9 72.3 71.2 87 67.8 0.0 0.0 --- 0.00 29.656
05/24/2004 1:00 a 73.0 71.0 71.0 71.2 70.7 88 67.3 0.0 0.0 --- 0.00 29.650
05/24/2004 1:30 a 72.0 70.4 70.4 71.0 70.1 90 67.3 0.0 0.0 --- 0.00 29.647
05/24/2004 2:00 a 72.4 69.9 69.9 70.1 69.6 92 67.5 0.0 0.0 --- 0.00 29.640
05/24/2004 2:30 a 72.4 69.5 69.5 69.9 69.4 92 67.1 0.0 0.0 --- 0.00 29.637
05/24/2004 3:00 a 72.0 70.2 70.2 70.4 69.9 89 66.8 0.0 0.0 --- 0.00 29.642
05/24/2004 3:30 a 72.0 69.8 69.8 70.4 69.2 88 66.1 0.0 0.0 --- 0.00 29.645
05/24/2004 4:00 a 71.0 68.7 68.7 69.2 67.9 89 65.3 0.0 0.0 --- 0.00 29.649
05/24/2004 4:30 a 67.2 67.2 67.2 67.9 66.5 89 63.9 0.0 0.0 --- 0.00 29.660
05/24/2004 5:00 a 65.9 65.9 65.9 66.5 65.3 89 62.6 0.0 0.0 --- 0.00 29.659
05/24/2004 5:30 a 64.8 64.8 64.8 65.4 64.4 91 62.1 0.0 0.0 --- 0.00 29.666
05/24/2004 6:00 a 64.3 64.3 64.3 64.5 64.2 90 61.3 0.0 0.0 --- 0.00 29.677
05/24/2004 6:30 a 64.5 64.5 64.5 64.7 64.3 89 61.2 0.0 0.0 --- 0.00 29.686
05/24/2004 7:00 a 64.2 64.2 64.2 64.5 64.1 89 60.9 0.0 0.0 --- 0.00 29.675
05/24/2004 7:30 a 64.2 64.2 64.2 64.6 64.1 89 60.9 0.0 0.0 --- 0.00 29.679
05/24/2004 8:00 a 65.3 65.3 65.3 66.0 64.6 86 61.0 0.0 0.0 --- 0.00 29.684
05/24/2004 8:30 a 66.7 66.7 66.7 67.2 65.9 85 62.1 0.0 0.0 --- 0.00 29.686
05/24/2004 9:00 a 67.5 67.5 67.5 68.1 67.0 83 62.2 0.0 0.0 --- 0.00 29.682
05/24/2004 9:30 a 71.0 68.5 68.5 69.5 67.9 82 62.8 0.0 0.0 --- 0.00 29.681
05/24/2004 10:00 a 71.8 70.1 70.1 71.4 69.4 79 63.3 0.0 0.0 --- 0.00 29.678
05/24/2004 10:30 a 73.4 72.3 72.3 73.1 71.4 77 64.7 0.0 0.0 --- 0.00 29.672
05/24/2004 11:00 a 76.0 74.3 74.3 75.3 73.0 74 65.5 0.0 0.0 --- 0.00 29.663
05/24/2004 11:30 a 78.2 76.0 76.0 77.1 75.3 72 66.3 0.0 2.0 ESE 0.00 29.656
05/24/2004 12:00 p 79.8 78.3 78.3 79.7 77.1 68 66.9 0.0 3.0 ESE 0.00 29.653
05/24/2004 12:30 p 85.5 81.7 81.7 82.8 79.7 65 68.8 0.0 4.0 ESE 0.00 29.639
05/24/2004 1:00 p 82.8 81.2 81.2 87.3 78.8 59 65.5 0.0 2.0 E 0.00 29.627
05/24/2004 1:30 p 96.4 91.5 91.5 93.8 87.3 46 67.8 0.0 3.0 E 0.00 29.617
05/24/2004 2:00 p 98.8 92.5 92.5 93.4 90.8 47 69.4 1.0 3.0 ESE 0.00 29.610
05/24/2004 2:30 p 92.0 88.2 88.2 90.7 85.8 50 67.2 0.0 2.0 ESE 0.00 29.599
05/24/2004 3:00 p 92.6 87.9 87.9 91.5 84.3 52 68.1 1.0 5.0 ESE 0.00 29.597
05/24/2004 3:30 p 92.3 87.5 87.5 89.7 84.6 51 67.2 1.0 3.0 E 0.00 29.589
05/24/2004 4:00 p 90.0 86.7 86.7 87.8 85.2 50 65.9 1.0 4.0 ESE 0.00 29.580
05/24/2004 4:30 p 88.2 84.1 84.1 86.7 80.0 63 70.2 0.0 3.0 ESE 0.00 29.569
05/24/2004 5:00 p 79.8 77.5 77.5 79.9 75.9 68 66.1 0.0 2.0 S 0.00 29.578
05/24/2004 5:30 p 74.5 73.4 73.4 75.9 71.4 75 65.0 0.0 2.0 SSE 0.00 29.583
05/24/2004 6:00 p 72.0 69.7 69.7 71.4 68.2 80 63.3 0.0 2.0 SE 0.00 29.589
05/24/2004 6:30 p 67.1 67.1 67.1 68.2 65.9 84 62.1 0.0 1.0 --- 0.00 29.594
05/24/2004 7:00 p 64.1 64.1 64.1 65.9 63.0 100 64.1 0.0 3.0 S 0.05 29.613
05/24/2004 7:30 p 63.1 63.1 63.1 63.4 62.9 100 63.1 0.0 1.0 S 0.02 29.608
05/24/2004 8:00 p 63.8 63.8 63.8 64.0 63.4 100 63.8 0.0 2.0 S 0.02 29.604
05/24/2004 8:30 p 64.1 64.1 64.1 64.2 63.9 100 64.1 0.0 0.0 --- 0.01 29.598
05/24/2004 9:00 p 64.2 64.2 64.2 64.5 63.8 100 64.2 0.0 2.0 S 0.00 29.591
05/24/2004 9:30 p 64.1 64.1 64.1 64.4 64.0 100 64.1 0.0 0.0 --- 0.00 29.588
05/24/2004 10:00 p 64.2 64.2 64.2 64.3 64.1 100 64.2 0.0 0.0 --- 0.00 29.598
05/24/2004 10:30 p 63.8 63.8 63.8 64.1 63.6 100 63.8 0.0 0.0 --- 0.00 29.599
05/24/2004 11:00 p 63.5 63.5 63.5 63.6 63.3 100 63.5 0.0 0.0 --- 0.00 29.596
05/24/2004 11:30 p 63.4 63.4 63.4 63.6 63.2 100 63.4 0.0 0.0 --- 0.00 29.605
05/25/2004 12:00 a 63.3 63.3 63.3 63.5 63.1 100 63.3 0.0 0.0 --- 0.00 29.614
05/25/2004 12:30 a 63.1 63.1 63.1 63.2 63.0 100 63.1 0.0 0.0 --- 0.00 29.632
05/25/2004 1:00 a 64.2 64.2 64.2 64.8 63.2 100 64.2 0.0 0.0 --- 0.00 29.642
05/25/2004 1:30 a 65.3 65.3 65.3 65.7 64.7 100 65.3 0.0 2.0 S 0.00 29.648
05/25/2004 2:00 a 64.4 64.4 64.4 65.0 64.1 100 64.4 0.0 2.0 S 0.00 29.656
05/25/2004 2:30 a 63.6 63.6 63.6 64.1 62.9 100 63.6 0.0 1.0 S 0.00 29.657
05/25/2004 3:00 a 62.5 62.5 62.5 62.9 62.1 100 62.5 0.0 0.0 --- 0.00 29.656
05/25/2004 3:30 a 61.8 61.8 61.8 62.1 61.4 100 61.8 0.0 1.0 --- 0.00 29.666
05/25/2004 4:00 a 61.1 61.1 61.1 61.4 61.0 100 61.1 0.0 0.0 --- 0.00 29.666
05/25/2004 4:30 a 60.7 60.7 60.7 61.0 60.6 100 60.7 0.0 0.0 --- 0.00 29.678
05/25/2004 5:00 a 60.4 60.4 60.4 60.7 60.2 100 60.4 0.0 0.0 --- 0.00 29.699
05/25/2004 5:30 a 60.2 60.2 60.2 60.3 59.9 100 60.2 0.0 0.0 --- 0.00 29.694
05/25/2004 6:00 a 59.5 59.5 59.5 59.9 59.1 100 59.5 0.0 0.0 --- 0.00 29.713
05/25/2004 6:30 a 59.1 59.1 59.1 59.2 59.0 100 59.1 0.0 0.0 --- 0.00 29.722
05/25/2004 7:00 a 59.5 59.5 59.5 60.2 59.1 100 59.5 0.0 0.0 --- 0.00 29.725
05/25/2004 7:30 a 64.5 64.5 64.5 70.1 60.2 95 63.0 0.0 0.0 --- 0.00 29.733
05/25/2004 8:00 a 67.0 67.0 67.0 70.8 64.9 99 66.7 0.0 1.0 S 0.00 29.745
05/25/2004 8:30 a 64.5 64.5 64.5 65.4 63.8 100 64.5 0.0 3.0 S 0.00 29.756
05/25/2004 9:00 a 64.8 64.8 64.8 65.5 64.4 100 64.8 0.0 4.0 SW 0.00 29.756
05/25/2004 9:30 a 66.3 66.3 66.3 67.1 65.5 100 66.3 0.0 4.0 WSW 0.00 29.739
05/25/2004 10:00 a 67.8 67.8 67.8 68.7 67.1 99 67.5 0.0 3.0 WSW 0.00 29.734
05/25/2004 10:30 a 71.6 69.2 69.2 70.0 68.7 96 68.0 0.0 2.0 WSW 0.00 29.740
05/25/2004 11:00 a 74.0 70.8 70.8 71.9 70.0 95 69.3 0.0 3.0 SSW 0.00 29.738
05/25/2004 11:30 a 75.2 72.5 72.5 73.1 71.9 91 69.7 0.0 2.0 SSW 0.00 29.732
05/25/2004 12:00 p 76.0 74.0 74.0 74.9 73.0 88 70.2 0.0 3.0 SW 0.00 29.727
05/25/2004 12:30 p 82.0 77.9 77.9 80.2 74.9 80 71.2 0.0 3.0 SW 0.00 29.719
05/25/2004 1:00 p 86.0 85.5 85.5 88.8 80.2 40 58.4 0.0 3.0 W 0.00 29.715
05/25/2004 1:30 p 92.4 90.9 90.9 92.1 88.8 37 61.1 0.0 3.0 W 0.00 29.720
05/25/2004 2:00 p 92.8 92.3 92.3 93.4 90.6 34 59.9 0.0 3.0 ENE 0.00 29.711
05/25/2004 2:30 p 93.6 93.4 93.4 94.8 91.2 32 59.2 0.0 4.0 WSW 0.00 29.707
05/25/2004 3:00 p 94.4 93.6 93.6 94.7 92.8 31 58.4 0.0 3.0 WSW 0.00 29.700
05/25/2004 3:30 p 96.0 91.8 91.8 94.0 84.7 45 67.5 0.0 4.0 ESE 0.00 29.699
05/25/2004 4:00 p 85.2 84.1 84.1 85.1 82.1 46 61.1 1.0 4.0 E 0.00 29.690
05/25/2004 4:30 p 83.7 81.9 81.9 84.7 77.7 57 65.2 1.0 4.0 E 0.00 29.693
05/25/2004 5:00 p 77.0 76.6 76.6 77.7 75.5 60 61.7 1.0 5.0 ESE 0.00 29.695
05/25/2004 5:30 p 77.2 76.9 76.9 79.0 74.7 61 62.4 1.0 5.0 ESE 0.00 29.695
05/25/2004 6:00 p 74.6 73.6 73.6 74.7 72.6 63 60.2 1.0 4.0 ESE 0.00 29.697
05/25/2004 6:30 p 72.0 72.0 72.0 72.6 71.0 64 59.2 1.0 3.0 ESE 0.00 29.712
05/25/2004 7:00 p 71.0 70.5 70.5 71.0 69.9 67 59.0 1.0 4.0 ESE 0.00 29.716
05/25/2004 7:30 p 69.0 69.4 69.4 69.9 68.8 69 58.8 0.0 3.0 ESE 0.00 29.720
05/25/2004 8:00 p 68.8 68.1 68.1 68.8 67.2 74 59.5 0.0 3.0 SE 0.00 29.719
05/25/2004 8:30 p 66.2 66.2 66.2 67.1 65.3 79 59.5 0.0 5.0 ESE 0.00 29.728
05/25/2004 9:00 p 64.2 64.2 64.2 65.3 62.9 86 59.9 0.0 4.0 ESE 0.00 29.733
05/25/2004 9:30 p 62.3 62.3 62.3 62.9 61.7 89 59.0 1.0 4.0 ESE 0.00 29.740
05/25/2004 10:00 p 61.1 61.1 61.1 61.7 60.6 90 58.1 1.0 4.0 ESE 0.00 29.738
05/25/2004 10:30 p 59.9 59.9 59.9 60.6 59.5 92 57.6 1.0 6.0 ESE 0.00 29.736
05/25/2004 11:00 p 59.3 59.3 59.3 59.5 59.3 92 57.0 1.0 5.0 ESE 0.00 29.749
05/25/2004 11:30 p 59.0 59.0 59.0 59.3 58.8 93 57.0 0.0 4.0 ESE 0.00 29.748
05/26/2004 12:00 a 58.6 58.6 58.6 58.8 58.2 94 56.9 0.0 5.0 ESE 0.00 29.758
05/26/2004 12:30 a 58.1 58.1 58.1 58.3 58.0 94 56.4 0.0 3.0 E 0.00 29.771
05/26/2004 1:00 a 57.7 57.7 57.7 58.0 57.4 95 56.3 1.0 4.0 ESE 0.00 29.749
05/26/2004 1:30 a 57.4 57.4 57.4 57.5 57.3 98 56.8 0.0 3.0 ESE 0.00 29.740
05/26/2004 2:00 a 57.2 57.2 57.2 57.3 57.2 98 56.6 0.0 3.0 ESE 0.00 29.733
05/26/2004 2:30 a 57.2 57.2 57.2 57.3 57.1 99 56.9 0.0 4.0 ESE 0.00 29.734
05/26/2004 3:00 a 57.1 57.1 57.1 57.2 57.1 100 57.1 0.0 3.0 S 0.00 29.720
05/26/2004 3:30 a 57.0 57.0 57.0 57.1 56.9 100 57.0 0.0 4.0 ESE 0.00 29.707
05/26/2004 4:00 a 57.0 57.0 57.0 57.1 56.9 100 57.0 0.0 4.0 ESE 0.00 29.711
05/26/2004 4:30 a 57.0 57.0 57.0 57.1 56.9 100 57.0 0.0 2.0 SSE 0.00 29.710
05/26/2004 5:00 a 57.0 57.0 57.0 57.1 57.0 100 57.0 0.0 3.0 ESE 0.00 29.704
05/26/2004 5:30 a 56.9 56.9 56.9 57.0 56.8 100 56.9 0.0 2.0 SSW 0.00 29.697
05/26/2004 6:00 a 56.6 56.6 56.6 56.8 56.4 100 56.6 0.0 2.0 SE 0.00 29.712
05/26/2004 6:30 a 56.4 56.4 56.4 56.5 56.3 100 56.4 0.0 2.0 SSE 0.00 29.707
05/26/2004 7:00 a 56.3 56.3 56.3 56.4 56.1 100 56.3 0.0 2.0 E 0.00 29.698
05/26/2004 7:30 a 56.0 56.0 56.0 56.2 56.0 100 56.0 0.0 3.0 ESE 0.00 29.707
05/26/2004 8:00 a 55.9 55.9 55.9 56.1 55.7 100 55.9 0.0 3.0 ESE 0.00 29.719
05/26/2004 8:30 a 55.8 55.8 55.8 55.9 55.6 99 55.5 0.0 3.0 SE 0.00 29.717
05/26/2004 9:00 a 55.6 55.6 55.6 55.7 55.4 100 55.6 0.0 2.0 SSE 0.02 29.728
05/26/2004 9:30 a 55.3 55.3 55.3 55.5 55.2 100 55.3 0.0 0.0 --- 0.05 29.718
05/26/2004 10:00 a 55.6 55.6 55.6 55.7 55.5 100 55.6 0.0 2.0 S 0.00 29.705
05/26/2004 10:30 a 55.8 55.8 55.8 56.0 55.6 100 55.8 0.0 1.0 --- 0.00 29.703
05/26/2004 11:00 a 56.0 56.0 56.0 56.1 55.9 100 56.0 0.0 1.0 S 0.00 29.717
05/26/2004 11:30 a 56.6 56.6 56.6 57.0 56.1 100 56.6 0.0 1.0 --- 0.00 29.717
05/26/2004 12:00 p 56.8 56.8 56.8 56.9 56.5 100 56.8 0.0 2.0 ESE 0.00 29.692
05/26/2004 12:30 p 57.5 57.5 57.5 58.1 56.9 100 57.5 0.0 2.0 SSE 0.00 29.684
05/26/2004 1:00 p 58.0 58.0 58.0 58.2 57.8 100 58.0 0.0 2.0 S 0.00 29.667
05/26/2004 1:30 p 58.3 58.3 58.3 59.1 58.0 100 58.3 0.0 2.0 S 0.00 29.671
05/26/2004 2:00 p 59.2 59.2 59.2 59.5 59.0 100 59.2 0.0 0.0 --- 0.01 29.655
05/26/2004 2:30 p 59.9 59.9 59.9 60.4 59.3 100 59.9 0.0 2.0 S 0.00 29.657
05/26/2004 3:00 p 60.3 60.3 60.3 60.6 60.0 100 60.3 0.0 2.0 S 0.00 29.648
05/26/2004 3:30 p 60.8 60.8 60.8 61.0 60.5 100 60.8 0.0 1.0 S 0.00 29.637
05/26/2004 4:00 p 61.4 61.4 61.4 62.1 60.7 100 61.4 0.0 2.0 ESE 0.00 29.619
05/26/2004 4:30 p 62.2 62.2 62.2 62.5 61.8 100 62.2 0.0 1.0 ESE 0.00 29.606
05/26/2004 5:00 p 61.8 61.8 61.8 62.0 61.5 100 61.8 0.0 1.0 ESE 0.00 29.594
05/26/2004 5:30 p 61.3 61.3 61.3 61.6 60.7 100 61.3 0.0 2.0 ENE 0.00 29.595
05/26/2004 6:00 p 60.3 60.3 60.3 60.7 60.1 100 60.3 0.0 1.0 ENE 0.00 29.603
05/26/2004 6:30 p 60.1 60.1 60.1 60.2 59.9 100 60.1 0.0 1.0 ENE 0.00 29.614
05/26/2004 7:00 p 59.5 59.5 59.5 59.9 59.1 100 59.5 0.0 1.0 ENE 0.00 29.604
05/26/2004 7:30 p 58.8 58.8 58.8 59.1 58.4 100 58.8 0.0 2.0 E 0.00 29.615
05/26/2004 8:00 p 58.3 58.3 58.3 58.4 58.2 100 58.3 0.0 2.0 E 0.00 29.619
05/26/2004 8:30 p 58.0 58.0 58.0 58.2 57.9 100 58.0 0.0 1.0 --- 0.00 29.593
05/26/2004 9:00 p 57.8 57.8 57.8 57.9 57.7 100 57.8 1.0 3.0 E 0.00 29.549
05/26/2004 9:30 p 57.6 57.6 57.6 57.7 57.6 100 57.6 0.0 2.0 E 0.00 29.567
05/26/2004 10:00 p 57.7 57.7 57.7 57.8 57.6 100 57.7 0.0 2.0 E 0.00 29.581
05/26/2004 10:30 p 57.5 57.5 57.5 57.6 57.5 100 57.5 0.0 0.0 --- 0.00 29.581
05/26/2004 11:00 p 57.7 57.7 57.7 57.8 57.6 100 57.7 0.0 0.0 --- 0.00 29.575
05/26/2004 11:30 p 57.6 57.6 57.6 57.8 57.4 100 57.6 0.0 3.0 E 0.00 29.551
05/27/2004 12:00 a 57.3 57.3 57.3 57.4 57.2 100 57.3 0.0 2.0 E 0.00 29.557
05/27/2004 12:30 a 57.3 57.3 57.3 57.4 57.2 100 57.3 0.0 2.0 E 0.00 29.584
05/27/2004 1:00 a 57.3 57.3 57.3 57.4 57.3 100 57.3 0.0 3.0 SW 0.00 29.576
05/27/2004 1:30 a 57.3 57.3 57.3 57.4 57.2 100 57.3 0.0 1.0 SW 0.02 29.569
05/27/2004 2:00 a 57.1 57.1 57.1 57.2 57.0 100 57.1 0.0 1.0 SW 0.06 29.561
05/27/2004 2:30 a 57.2 57.2 57.2 57.2 57.1 100 57.2 0.0 0.0 --- 0.06 29.570
05/27/2004 3:00 a 57.3 57.3 57.3 57.5 57.2 100 57.3 0.0 0.0 --- 0.04 29.568
05/27/2004 3:30 a 57.6 57.6 57.6 57.6 57.5 100 57.6 0.0 0.0 --- 0.02 29.563
05/27/2004 4:00 a 57.6 57.6 57.6 57.7 57.6 100 57.6 0.0 0.0 --- 0.01 29.561
05/27/2004 4:30 a 57.7 57.7 57.7 57.8 57.6 100 57.7 0.0 0.0 --- 0.00 29.553
05/27/2004 5:00 a 57.9 57.9 57.9 58.0 57.7 100 57.9 0.0 0.0 --- 0.00 29.569
05/27/2004 5:30 a 58.0 58.0 58.0 58.2 57.9 100 58.0 0.0 0.0 --- 0.00 29.584
05/27/2004 6:00 a 58.3 58.3 58.3 58.4 58.1 100 58.3 0.0 0.0 --- 0.00 29.601
05/27/2004 6:30 a 58.4 58.4 58.4 58.5 58.3 100 58.4 0.0 0.0 --- 0.00 29.603
05/27/2004 7:00 a 58.3 58.3 58.3 58.4 58.2 100 58.3 0.0 0.0 --- 0.00 29.602
05/27/2004 7:30 a 58.3 58.3 58.3 58.4 58.1 100 58.3 0.0 0.0 --- 0.00 29.616
05/27/2004 8:00 a 58.8 58.8 58.8 59.1 58.3 100 58.8 0.0 0.0 --- 0.00 29.625
05/27/2004 8:30 a 59.5 59.5 59.5 59.7 59.1 100 59.5 0.0 0.0 --- 0.00 29.626
05/27/2004 9:00 a 59.9 59.9 59.9 60.3 59.7 100 59.9 0.0 0.0 --- 0.00 29.614
05/27/2004 9:30 a 60.7 60.7 60.7 61.0 60.3 100 60.7 0.0 2.0 SW 0.00 29.615
05/27/2004 10:00 a 61.4 61.4 61.4 62.1 60.9 100 61.4 0.0 2.0 SW 0.00 29.612
05/27/2004 10:30 a 62.8 62.8 62.8 63.5 62.1 100 62.8 0.0 2.0 SW 0.00 29.608
05/27/2004 11:00 a 64.1 64.1 64.1 64.9 63.5 100 64.1 0.0 3.0 SW 0.00 29.602
05/28/2004 12:00 a 61.7 61.7 61.7 61.9 61.6 100 61.7 0.0 1.0 --- 0.01 29.548
05/28/2004 12:30 a 61.5 61.5 61.5 61.6 61.4 100 61.5 0.0 1.0 ESE 0.00 29.534
05/28/2004 1:00 a 61.4 61.4 61.4 61.5 61.3 100 61.4 0.0 2.0 SSE 0.06 29.544
05/28/2004 1:30 a 61.4 61.4 61.4 61.5 61.3 100 61.4 0.0 1.0 --- 0.04 29.535
05/28/2004 2:00 a 61.5 61.5 61.5 61.5 61.5 100 61.5 0.0 0.0 --- 0.01 29.522
05/28/2004 2:30 a 61.6 61.6 61.6 61.6 61.5 100 61.6 0.0 0.0 --- 0.00 29.508
05/28/2004 3:00 a 61.8 61.8 61.8 62.0 61.6 100 61.8 0.0 0.0 --- 0.00 29.509
05/28/2004 3:30 a 62.1 62.1 62.1 62.3 62.0 100 62.1 0.0 0.0 --- 0.02 29.504
05/28/2004 4:00 a 62.3 62.3 62.3 62.4 62.3 100 62.3 0.0 0.0 --- 0.01 29.491
05/28/2004 4:30 a 62.6 62.6 62.6 62.7 62.4 100 62.6 0.0 0.0 --- 0.01 29.488
05/28/2004 5:00 a 62.7 62.7 62.7 62.7 62.7 100 62.7 0.0 0.0 --- 0.00 29.477
05/28/2004 5:30 a 62.8 62.8 62.8 62.8 62.7 100 62.8 0.0 0.0 --- 0.00 29.466
05/28/2004 6:00 a 62.9 62.9 62.9 62.9 62.8 100 62.9 0.0 0.0 --- 0.00 29.469
05/28/2004 6:30 a 62.9 62.9 62.9 63.0 62.9 100 62.9 0.0 0.0 --- 0.00 29.465
05/28/2004 7:00 a 63.1 63.1 63.1 63.3 63.0 100 63.1 0.0 0.0 --- 0.00 29.456
05/28/2004 7:30 a 63.4 63.4 63.4 63.7 63.2 100 63.4 0.0 0.0 --- 0.00 29.454
05/28/2004 8:00 a 64.2 64.2 64.2 64.5 63.7 100 64.2 0.0 0.0 --- 0.00 29.443
05/28/2004 8:30 a 64.6 64.6 64.6 64.8 64.5 100 64.6 0.0 0.0 --- 0.00 29.453
05/28/2004 9:00 a 65.2 65.2 65.2 65.7 64.8 100 65.2 0.0 0.0 --- 0.00 29.450
05/28/2004 9:30 a 66.5 66.5 66.5 67.0 65.7 100 66.5 0.0 0.0 --- 0.00 29.446
05/28/2004 10:00 a 66.8 66.8 66.8 66.9 66.6 100 66.8 0.0 0.0 --- 0.00 29.446
05/28/2004 10:30 a 67.0 67.0 67.0 67.3 66.6 100 67.0 0.0 0.0 --- 0.00 29.445
05/28/2004 11:00 a 70.0 68.1 68.1 69.4 67.3 100 68.1 0.0 0.0 --- 0.01 29.411
05/28/2004 11:30 a 74.0 69.9 69.9 70.4 69.4 100 69.9 0.0 3.0 SW 0.00 29.428
05/28/2004 12:00 p 74.0 70.2 70.2 70.6 69.5 100 70.2 0.0 3.0 WNW 0.00 29.413
05/28/2004 12:30 p 77.0 72.5 72.5 75.5 70.1 100 72.5 0.0 3.0 NNW 0.00 29.401
05/28/2004 1:00 p 80.0 76.2 76.2 77.3 74.6 98 75.6 0.0 3.0 SSW 0.00 29.401
05/28/2004 1:30 p 83.4 77.9 77.9 82.0 75.0 94 76.0 0.0 3.0 WSW 0.00 29.395
05/28/2004 2:00 p 90.2 81.0 81.0 82.6 78.5 93 78.8 0.0 2.0 WNW 0.00 29.395
05/28/2004 2:30 p 85.4 78.7 78.7 81.0 77.9 92 76.2 0.0 3.0 W 0.00 29.388
05/28/2004 3:00 p 85.4 78.5 78.5 82.8 71.1 92 76.0 1.0 6.0 WSW 0.00 29.409
05/28/2004 3:30 p 67.5 67.5 67.5 71.0 64.8 100 67.5 0.0 7.0 WSW 0.01 29.420
05/28/2004 4:00 p 65.6 65.6 65.6 68.3 64.4 100 65.6 0.0 0.0 --- 0.07 29.407
05/28/2004 4:30 p 75.0 71.1 71.1 73.3 68.1 100 71.1 0.0 0.0 --- 0.04 29.412
05/28/2004 5:00 p 76.0 71.7 71.7 72.4 70.9 100 71.7 0.0 1.0 S 0.02 29.419
05/28/2004 5:30 p 72.0 68.6 68.6 70.9 67.6 100 68.6 0.0 3.0 S 0.00 29.422
05/28/2004 6:00 p 72.0 69.1 69.1 69.3 68.6 100 69.1 0.0 3.0 SW 0.00 29.434
05/28/2004 6:30 p 74.0 69.5 69.5 69.9 69.1 100 69.5 0.0 4.0 SW 0.00 29.447
05/28/2004 7:00 p 74.0 69.7 69.7 69.8 69.5 100 69.7 0.0 5.0 SW 0.00 29.465
05/28/2004 7:30 p 71.9 69.2 69.2 69.5 69.0 99 68.9 0.0 2.0 SW 0.00 29.474
05/28/2004 8:00 p 71.6 68.7 68.7 69.2 68.1 96 67.5 0.0 4.0 SW 0.00 29.491
05/28/2004 8:30 p 67.4 67.4 67.4 68.2 66.7 96 66.2 0.0 2.0 SW 0.00 29.511
05/28/2004 9:00 p 64.9 64.9 64.9 66.7 63.4 99 64.6 0.0 0.0 --- 0.00 29.521
05/28/2004 9:30 p 62.5 62.5 62.5 63.4 61.8 100 62.5 0.0 0.0 --- 0.00 29.548
05/28/2004 10:00 p 61.4 61.4 61.4 61.8 61.0 100 61.4 0.0 0.0 --- 0.00 29.567
05/28/2004 10:30 p 60.7 60.7 60.7 61.1 59.9 100 60.7 0.0 0.0 --- 0.00 29.585
05/28/2004 11:00 p 59.8 59.8 59.8 60.7 59.5 100 59.8 0.0 2.0 SW 0.00 29.590
05/28/2004 11:30 p 61.4 61.4 61.4 61.6 60.7 96 60.3 0.0 0.0 --- 0.00 29.592
05/29/2004 12:00 a 59.9 59.9 59.9 61.3 58.7 96 58.8 0.0 0.0 --- 0.00 29.606
05/29/2004 12:30 a 58.0 58.0 58.0 58.7 57.5 94 56.3 0.0 0.0 --- 0.00 29.618
05/29/2004 1:00 a 57.5 57.5 57.5 58.5 57.2 82 52.1 0.0 4.0 SW 0.00 29.632
05/29/2004 1:30 a 58.5 58.5 58.5 58.9 58.3 75 50.6 0.0 4.0 SW 0.00 29.642
05/29/2004 2:00 a 58.2 58.2 58.2 58.4 58.1 69 48.1 0.0 6.0 SW 0.00 29.654
05/29/2004 2:30 a 57.9 57.9 57.9 58.1 57.5 64 45.8 1.0 4.0 WSW 0.00 29.666
05/29/2004 3:00 a 56.8 56.8 56.8 57.5 55.8 67 46.0 0.0 3.0 WSW 0.00 29.663
05/29/2004 3:30 a 55.3 55.3 55.3 55.8 54.8 59 41.2 1.0 6.0 WSW 0.00 29.674
05/29/2004 4:00 a 55.0 55.0 55.0 55.4 54.6 63 42.7 0.0 5.0 SW 0.00 29.680
05/29/2004 4:30 a 54.3 54.3 54.3 54.6 54.0 65 42.8 1.0 6.0 WSW 0.00 29.693
05/29/2004 5:00 a 53.9 53.9 53.9 54.0 53.7 67 43.2 1.0 5.0 WSW 0.00 29.700
05/29/2004 5:30 a 53.4 53.4 53.4 53.7 53.2 68 43.1 1.0 5.0 WSW 0.00 29.718
05/29/2004 6:00 a 53.0 53.0 53.0 53.2 52.8 69 43.1 1.0 9.0 WSW 0.00 29.736
05/29/2004 6:30 a 52.7 52.7 52.7 52.9 52.6 71 43.6 1.0 4.0 WSW 0.00 29.751
05/29/2004 7:00 a 52.6 52.6 52.6 52.9 52.5 70 43.1 1.0 7.0 SW 0.00 29.769
05/29/2004 7:30 a 56.8 56.8 56.8 62.3 52.8 50 38.4 1.0 6.0 WSW 0.00 29.787
05/29/2004 8:00 a 59.9 59.9 59.9 63.5 56.9 56 44.2 1.0 7.0 W 0.00 29.792
05/29/2004 8:30 a 56.8 56.8 56.8 58.1 56.4 61 43.5 1.0 6.0 WSW 0.00 29.797
05/29/2004 9:00 a 56.8 56.8 56.8 57.2 56.6 58 42.2 1.0 8.0 WSW 0.00 29.808
05/29/2004 9:30 a 57.7 57.7 57.7 58.4 57.2 53 40.7 2.0 7.0 WSW 0.00 29.804
05/29/2004 10:00 a 59.1 59.1 59.1 59.9 58.4 47 38.9 1.0 8.0 WSW 0.00 29.809
05/29/2004 10:30 a 60.5 60.5 60.5 61.1 59.9 42 37.3 1.0 8.0 WSW 0.00 29.819
05/29/2004 11:00 a 61.6 61.6 61.6 62.3 60.7 35 33.7 2.0 9.0 WSW 0.00 29.818
05/29/2004 11:30 a 62.7 62.7 62.7 63.0 62.3 34 34.0 1.0 9.0 WSW 0.00 29.813
05/29/2004 12:00 p 63.8 63.8 63.8 64.9 62.9 31 32.6 2.0 10.0 WSW 0.00 29.826
05/29/2004 12:30 p 67.1 67.1 67.1 69.1 64.8 28 32.9 1.0 10.0 WSW 0.00 29.816
05/29/2004 1:00 p 68.0 71.5 71.5 74.6 69.0 20 28.4 1.0 8.0 WSW 0.00 29.815
05/29/2004 1:30 p 72.9 75.6 75.6 76.8 73.7 19 30.5 1.0 10.0 WSW 0.00 29.821
05/29/2004 2:00 p 75.0 77.0 77.0 78.8 75.6 20 32.9 2.0 9.0 WSW 0.00 29.819
05/29/2004 2:30 p 76.8 78.7 78.7 79.6 77.9 19 33.0 1.0 8.0 WSW 0.01 29.813
05/29/2004 3:00 p 77.8 80.2 80.2 81.3 78.9 19 34.2 1.0 7.0 WSW 0.00 29.804
05/29/2004 3:30 p 77.8 79.8 79.8 81.0 78.4 19 33.9 1.0 7.0 WSW 0.00 29.805
05/29/2004 4:00 p 75.0 77.0 77.0 80.0 70.2 25 38.5 1.0 7.0 WSW 0.00 29.813
05/29/2004 4:30 p 65.0 69.2 69.2 70.2 68.3 26 32.9 1.0 7.0 WSW 0.00 29.814
05/29/2004 5:00 p 63.4 68.4 68.4 69.3 68.0 24 30.2 2.0 8.0 WSW 0.00 29.811
05/29/2004 5:30 p 66.0 69.5 69.5 73.6 65.8 27 34.1 1.0 9.0 WSW 0.00 29.820
05/29/2004 6:00 p 65.0 65.0 65.0 65.9 64.4 31 33.7 1.0 5.0 WSW 0.00 29.821
05/29/2004 6:30 p 64.5 64.5 64.5 65.0 64.2 30 32.4 1.0 7.0 WSW 0.00 29.828
05/29/2004 7:00 p 63.7 63.7 63.7 64.3 62.9 32 33.3 1.0 5.0 WSW 0.00 29.836
05/29/2004 7:30 p 62.3 62.3 62.3 62.9 61.4 37 35.7 0.0 4.0 WSW 0.00 29.839
05/29/2004 8:00 p 60.7 60.7 60.7 61.4 59.5 39 35.6 0.0 4.0 WSW 0.00 29.854
05/29/2004 8:30 p 58.3 58.3 58.3 59.5 56.8 47 38.2 0.0 0.0 --- 0.00 29.865
05/29/2004 9:00 p 56.3 56.3 56.3 56.8 56.0 50 37.9 0.0 2.0 WSW 0.00 29.870
05/29/2004 9:30 p 55.0 55.0 55.0 56.1 53.8 54 38.7 0.0 0.0 --- 0.00 29.885
05/29/2004 10:00 p 53.3 53.3 53.3 53.8 53.1 61 40.2 0.0 0.0 --- 0.00 29.898
05/29/2004 10:30 p 52.0 52.0 52.0 53.0 51.0 68 41.8 0.0 0.0 --- 0.00 29.904
05/29/2004 11:00 p 50.2 50.2 50.2 50.9 49.6 70 40.8 0.0 0.0 --- 0.00 29.900
05/29/2004 11:30 p 48.9 48.9 48.9 49.6 47.9 78 42.4 0.0 0.0 --- 0.00 29.903
05/30/2004 12:00 a 47.4 47.4 47.4 47.9 47.3 81 41.9 0.0 0.0 --- 0.00 29.894
05/30/2004 12:30 a 46.7 46.7 46.7 47.4 46.2 86 42.7 0.0 0.0 --- 0.00 29.894
05/30/2004 1:00 a 46.4 46.4 46.4 46.5 46.1 87 42.7 0.0 0.0 --- 0.00 29.886
05/30/2004 1:30 a 45.5 45.5 45.5 46.1 45.1 89 42.5 0.0 0.0 --- 0.00 29.894
05/30/2004 2:00 a 44.8 44.8 44.8 45.1 44.3 90 42.1 0.0 0.0 --- 0.00 29.902
05/30/2004 2:30 a 44.2 44.2 44.2 44.3 43.9 92 42.0 0.0 0.0 --- 0.00 29.895
05/30/2004 3:00 a 43.7 43.7 43.7 43.9 43.5 93 41.8 0.0 0.0 --- 0.00 29.898
05/30/2004 3:30 a 43.2 43.2 43.2 43.5 43.0 94 41.6 0.0 0.0 --- 0.00 29.891
05/30/2004 4:00 a 42.8 42.8 42.8 43.0 42.6 94 41.2 0.0 0.0 --- 0.00 29.892
05/30/2004 4:30 a 42.5 42.5 42.5 42.7 42.3 95 41.2 0.0 0.0 --- 0.00 29.886
05/30/2004 5:00 a 42.2 42.2 42.2 42.5 41.9 95 40.9 0.0 0.0 --- 0.00 29.894
05/30/2004 5:30 a 41.8 41.8 41.8 42.0 41.5 94 40.2 0.0 0.0 --- 0.00 29.914
05/30/2004 6:00 a 41.5 41.5 41.5 41.7 41.4 95 40.2 0.0 0.0 --- 0.00 29.926
05/30/2004 6:30 a 42.1 42.1 42.1 43.1 41.6 96 41.0 0.0 0.0 --- 0.00 29.934
05/30/2004 7:00 a 44.3 44.3 44.3 46.1 43.1 93 42.4 0.0 0.0 --- 0.00 29.934
05/30/2004 7:30 a 53.5 53.5 53.5 64.0 46.1 54 37.3 0.0 0.0 --- 0.00 29.934
05/30/2004 8:00 a 63.1 63.1 63.1 66.7 60.7 56 47.2 0.0 0.0 --- 0.00 29.930
05/30/2004 8:30 a 59.9 59.9 59.9 60.7 59.5 54 43.2 0.0 0.0 --- 0.00 29.923
05/30/2004 9:00 a 61.0 61.0 61.0 61.5 59.9 42 37.8 0.0 0.0 --- 0.00 29.918
05/30/2004 9:30 a 62.6 62.6 62.6 63.2 61.5 38 36.7 0.0 0.0 --- 0.00 29.904
05/30/2004 10:00 a 63.6 63.6 63.6 64.1 63.1 36 36.2 0.0 0.0 --- 0.00 29.889
05/30/2004 10:30 a 65.0 65.0 65.0 65.7 64.1 38 38.8 0.0 3.0 WSW 0.00 29.880
05/30/2004 11:00 a 66.1 66.1 66.1 67.0 65.6 36 38.4 0.0 4.0 WSW 0.00 29.878
05/30/2004 11:30 a 67.4 67.4 67.4 67.6 67.0 36 39.5 0.0 3.0 SSW 0.00 29.876
05/30/2004 12:00 p 65.2 68.3 68.3 69.6 67.2 36 40.3 0.0 3.0 WSW 0.00 29.874
05/30/2004 12:30 p 69.3 72.2 72.2 74.2 69.5 33 41.5 0.0 3.0 SW 0.00 29.859
05/30/2004 1:00 p 77.0 79.1 79.1 83.6 74.2 26 41.3 0.0 3.0 W 0.00 29.842
05/30/2004 1:30 p 81.6 85.3 85.3 87.2 83.7 23 43.3 0.0 3.0 W 0.00 29.838
05/30/2004 2:00 p 83.8 86.9 86.9 87.7 86.0 24 45.8 0.0 2.0 W 0.00 29.823
05/30/2004 2:30 p 84.2 87.7 87.7 88.9 86.8 21 43.0 0.0 4.0 WSW 0.00 29.815
05/30/2004 3:00 p 84.6 87.7 87.7 88.7 86.6 23 45.3 0.0 4.0 WSW 0.00 29.801
05/30/2004 3:30 p 84.0 88.2 88.2 89.1 87.1 20 42.1 0.0 2.0 S 0.00 29.782
05/30/2004 4:00 p 85.4 88.6 88.6 89.2 87.9 22 44.9 0.0 3.0 W 0.00 29.774
05/30/2004 4:30 p 83.4 86.1 86.1 88.0 81.1 27 48.2 0.0 4.0 S 0.00 29.757
05/30/2004 5:00 p 76.2 77.8 77.8 81.1 76.7 32 45.6 0.0 4.0 NW 0.00 29.753
05/30/2004 5:30 p 77.4 79.0 79.0 82.7 74.6 32 46.7 0.0 4.0 SSW 0.00 29.748
05/30/2004 6:00 p 71.0 73.3 73.3 74.6 72.6 39 46.9 0.0 3.0 WSW 0.00 29.736
05/30/2004 6:30 p 70.1 72.2 72.2 72.6 71.7 41 47.2 0.0 2.0 SSW 0.00 29.728
05/30/2004 7:00 p 69.0 71.1 71.1 71.7 70.2 45 48.7 0.0 2.0 SW 0.00 29.726
05/30/2004 7:30 p 68.0 69.7 69.7 70.2 68.9 50 50.3 0.0 2.0 S 0.00 29.723
05/30/2004 8:00 p 66.8 68.0 68.0 68.9 66.8 54 50.8 0.0 0.0 --- 0.00 29.721
05/30/2004 8:30 p 65.8 65.8 65.8 66.8 64.8 58 50.6 0.0 0.0 --- 0.00 29.723
05/30/2004 9:00 p 64.1 64.1 64.1 64.8 63.5 64 51.7 0.0 0.0 --- 0.00 29.718
05/30/2004 9:30 p 62.9 62.9 62.9 63.5 62.2 68 52.2 0.0 0.0 --- 0.00 29.724
05/30/2004 10:00 p 62.2 62.2 62.2 62.3 62.0 74 53.8 0.0 0.0 --- 0.00 29.722
05/30/2004 10:30 p 62.5 62.5 62.5 62.7 62.2 78 55.6 0.0 0.0 --- 0.00 29.722
05/30/2004 11:00 p 61.7 61.7 61.7 62.2 61.1 81 55.8 0.0 0.0 --- 0.00 29.714
05/30/2004 11:30 p 60.5 60.5 60.5 61.1 59.8 85 56.0 0.0 0.0 --- 0.00 29.712
05/31/2004 12:00 a 59.3 59.3 59.3 59.8 58.7 88 55.8 0.0 0.0 --- 0.00 29.709
05/31/2004 12:30 a 58.1 58.1 58.1 58.7 57.4 91 55.5 0.0 0.0 --- 0.00 29.711
05/31/2004 1:00 a 56.9 56.9 56.9 57.4 56.6 93 54.9 0.0 0.0 --- 0.00 29.726
05/31/2004 1:30 a 56.3 56.3 56.3 56.6 56.0 95 54.9 0.0 0.0 --- 0.00 29.731
05/31/2004 2:00 a 56.0 56.0 56.0 56.1 55.9 96 54.9 0.0 0.0 --- 0.00 29.715
05/31/2004 2:30 a 56.0 56.0 56.0 56.1 55.9 96 54.9 0.0 0.0 --- 0.00 29.704
05/31/2004 3:00 a 56.0 56.0 56.0 56.1 56.0 96 54.9 0.0 0.0 --- 0.00 29.698
05/31/2004 3:30 a 56.0 56.0 56.0 56.1 56.0 96 54.9 0.0 0.0 --- 0.00 29.689
05/31/2004 4:00 a 55.9 55.9 55.9 56.1 55.7 96 54.8 0.0 0.0 --- 0.00 29.694
05/31/2004 4:30 a 56.0 56.0 56.0 56.2 55.8 97 55.2 0.0 0.0 --- 0.00 29.676
05/31/2004 5:00 a 56.5 56.5 56.5 56.6 56.2 94 54.8 0.0 0.0 --- 0.00 29.661
05/31/2004 5:30 a 55.9 55.9 55.9 56.2 55.8 95 54.5 0.0 0.0 --- 0.00 29.663
05/31/2004 6:00 a 56.2 56.2 56.2 56.6 55.9 89 53.0 0.0 0.0 --- 0.00 29.668
05/31/2004 6:30 a 57.2 57.2 57.2 57.7 56.6 79 50.8 0.0 0.0 --- 0.00 29.673
05/31/2004 7:00 a 57.9 57.9 57.9 58.1 57.7 77 50.7 0.0 0.0 --- 0.00 29.670
05/31/2004 7:30 a 59.2 59.2 59.2 63.8 58.0 63 46.6 0.0 0.0 --- 0.00 29.664
05/31/2004 8:00 a 64.4 64.4 64.4 66.6 62.4 69 54.0 0.0 0.0 --- 0.00 29.668
05/31/2004 8:30 a 62.8 62.8 62.8 63.4 62.4 68 52.1 0.0 0.0 --- 0.00 29.656
05/31/2004 9:00 a 63.6 63.6 63.6 63.9 63.4 67 52.5 0.0 0.0 --- 0.00 29.655
05/31/2004 9:30 a 64.3 64.3 64.3 64.5 63.9 64 51.9 0.0 5.0 SSW 0.00 29.649
05/31/2004 10:00 a 63.8 63.8 63.8 64.2 63.3 66 52.2 0.0 1.0 --- 0.00 29.649
05/31/2004 10:30 a 63.3 63.3 63.3 63.5 63.2 67 52.2 0.0 4.0 ESE 0.00 29.642
05/31/2004 11:00 a 63.3 63.3 63.3 63.5 63.1 64 50.9 1.0 4.0 ESE 0.00 29.627
05/31/2004 11:30 a 63.7 63.7 63.7 64.3 63.1 60 49.6 1.0 5.0 ESE 0.00 29.636
05/31/2004 12:00 p 63.0 63.0 63.0 63.7 61.5 72 53.8 1.0 5.0 ESE 0.00 29.639
05/31/2004 12:30 p 60.5 60.5 60.5 61.5 60.1 79 54.0 0.0 3.0 ESE 0.00 29.632
05/31/2004 1:00 p 60.7 60.7 60.7 61.3 60.2 80 54.5 0.0 3.0 E 0.00 29.620
05/31/2004 1:30 p 61.0 61.0 61.0 61.3 60.2 89 57.7 0.0 3.0 ESE 0.00 29.615
05/31/2004 2:00 p 59.3 59.3 59.3 60.2 58.6 100 59.3 0.0 2.0 ESE 0.02 29.601
05/31/2004 2:30 p 58.8 58.8 58.8 59.1 58.6 100 58.8 0.0 1.0 --- 0.03 29.571
05/31/2004 3:00 p 59.1 59.1 59.1 59.3 58.9 100 59.1 0.0 3.0 S 0.01 29.568
05/31/2004 3:30 p 58.7 58.7 58.7 59.0 58.5 100 58.7 0.0 3.0 SW 0.03 29.567
05/31/2004 4:00 p 58.5 58.5 58.5 58.6 58.4 100 58.5 0.0 2.0 WSW 0.06 29.557
05/31/2004 4:30 p 58.7 58.7 58.7 58.9 58.6 100 58.7 0.0 3.0 SSE 0.05 29.558
05/31/2004 5:00 p 58.8 58.8 58.8 59.0 58.4 100 58.8 0.0 4.0 ESE 0.03 29.562
05/31/2004 5:30 p 57.7 57.7 57.7 58.4 56.8 100 57.7 0.0 4.0 ESE 0.04 29.556
05/31/2004 6:00 p 57.0 57.0 57.0 57.2 56.8 100 57.0 0.0 2.0 ESE 0.02 29.544
05/31/2004 6:30 p 57.1 57.1 57.1 57.3 57.0 100 57.1 0.0 3.0 WSW 0.02 29.542
05/31/2004 7:00 p 56.9 56.9 56.9 57.1 56.7 100 56.9 0.0 2.0 WSW 0.01 29.537
05/31/2004 7:30 p 56.7 56.7 56.7 56.8 56.6 100 56.7 0.0 2.0 WSW 0.01 29.528
05/31/2004 8:00 p 56.6 56.6 56.6 56.7 56.6 100 56.6 0.0 3.0 WSW 0.00 29.515
05/31/2004 8:30 p 56.8 56.8 56.8 56.9 56.6 100 56.8 0.0 1.0 --- 0.00 29.506
05/31/2004 9:00 p 57.0 57.0 57.0 57.1 56.8 100 57.0 0.0 0.0 --- 0.00 29.511
05/31/2004 9:30 p 57.2 57.2 57.2 57.3 57.1 100 57.2 0.0 1.0 S 0.01 29.505
05/31/2004 10:00 p 57.4 57.4 57.4 57.5 57.3 100 57.4 0.0 0.0 --- 0.00 29.515
05/31/2004 10:30 p 57.6 57.6 57.6 57.7 57.5 100 57.6 0.0 0.0 --- 0.00 29.519
05/31/2004 11:00 p 57.7 57.7 57.7 57.7 57.6 100 57.7 0.0 0.0 --- 0.01 29.503
05/31/2004 11:30 p 57.7 57.7 57.7 57.7 57.5 100 57.7 0.0 1.0 --- 0.00 29.512